<?xml version="1.0" encoding="UTF-8" standalone="no" ?>
<gpx xmlns="http://www.topografix.com/GPX/1/1" xmlns:xsi="http://www.w3.org/2001/XMLSchema-instance" xsi:schemaLocation="http://www.topografix.com/GPX/1/1 http://www.topografix.com/GPX/1/1/gpx.xsd" version="1.1" creator="VisuGPX - https://www.visugpx.com">
  <metadata>
    <name>PIC DE PRADEL</name>
    <desc><![CDATA[Magnifique boucle avec quelques passages un peu raide.
A faire par temps sec de préférence. 
Au retour, arrivé au parking du Pla de Las Peyres, nous avons fait du stop sans difficulté, afin d'éviter la longue piste finale fastidieuse, pour revenir à notre voiture.]]></desc>
  </metadata>
  <trk>
    <name><![CDATA[Col de Pradel]]></name>
    <trkseg>
      <trkpt lat="42.67294" lon="1.70872">
        <ele>1532.96</ele>
        <time>2019-06-08T07:09:31Z</time>
      </trkpt>
      <trkpt lat="42.67294" lon="1.70872">
        <ele>1536.8</ele>
        <time>2019-06-08T07:09:39Z</time>
      </trkpt>
      <trkpt lat="42.67293" lon="1.70872">
        <ele>1540.65</ele>
        <time>2019-06-08T07:09:49Z</time>
      </trkpt>
      <trkpt lat="42.67293" lon="1.70868">
        <ele>1544.5</ele>
        <time>2019-06-08T07:10:03Z</time>
      </trkpt>
      <trkpt lat="42.67295" lon="1.70868">
        <ele>1546.9</ele>
        <time>2019-06-08T07:10:35Z</time>
      </trkpt>
      <trkpt lat="42.67296" lon="1.70868">
        <ele>1551.22</ele>
        <time>2019-06-08T07:12:20Z</time>
      </trkpt>
      <trkpt lat="42.67296" lon="1.70868">
        <ele>1547.86</ele>
        <time>2019-06-08T07:12:23Z</time>
      </trkpt>
      <trkpt lat="42.67295" lon="1.70869">
        <ele>1543.05</ele>
        <time>2019-06-08T07:12:41Z</time>
      </trkpt>
      <trkpt lat="42.67295" lon="1.70869">
        <ele>1549.3</ele>
        <time>2019-06-08T07:12:42Z</time>
      </trkpt>
      <trkpt lat="42.67296" lon="1.70872">
        <ele>1548.82</ele>
        <time>2019-06-08T07:14:28Z</time>
      </trkpt>
      <trkpt lat="42.673" lon="1.70873">
        <ele>1547.38</ele>
        <time>2019-06-08T07:16:19Z</time>
      </trkpt>
      <trkpt lat="42.67313" lon="1.70871">
        <ele>1552.67</ele>
        <time>2019-06-08T07:17:57Z</time>
      </trkpt>
      <trkpt lat="42.67317" lon="1.70883">
        <ele>1556.99</ele>
        <time>2019-06-08T07:18:39Z</time>
      </trkpt>
      <trkpt lat="42.67316" lon="1.70885">
        <ele>1560.36</ele>
        <time>2019-06-08T07:18:51Z</time>
      </trkpt>
      <trkpt lat="42.67308" lon="1.70897">
        <ele>1565.64</ele>
        <time>2019-06-08T07:19:38Z</time>
      </trkpt>
      <trkpt lat="42.67315" lon="1.70906">
        <ele>1569.01</ele>
        <time>2019-06-08T07:20:11Z</time>
      </trkpt>
      <trkpt lat="42.67324" lon="1.70913">
        <ele>1574.3</ele>
        <time>2019-06-08T07:20:44Z</time>
      </trkpt>
      <trkpt lat="42.67323" lon="1.70917">
        <ele>1574.3</ele>
        <time>2019-06-08T07:20:56Z</time>
      </trkpt>
      <trkpt lat="42.67315" lon="1.70924">
        <ele>1579.1</ele>
        <time>2019-06-08T07:21:23Z</time>
      </trkpt>
      <trkpt lat="42.67311" lon="1.70938">
        <ele>1582.95</ele>
        <time>2019-06-08T07:21:56Z</time>
      </trkpt>
      <trkpt lat="42.67305" lon="1.70948">
        <ele>1586.31</ele>
        <time>2019-06-08T07:22:23Z</time>
      </trkpt>
      <trkpt lat="42.67306" lon="1.70956">
        <ele>1591.6</ele>
        <time>2019-06-08T07:22:56Z</time>
      </trkpt>
      <trkpt lat="42.67307" lon="1.70973">
        <ele>1595.45</ele>
        <time>2019-06-08T07:23:36Z</time>
      </trkpt>
      <trkpt lat="42.67304" lon="1.70975">
        <ele>1597.37</ele>
        <time>2019-06-08T07:23:48Z</time>
      </trkpt>
      <trkpt lat="42.67295" lon="1.70979">
        <ele>1600.73</ele>
        <time>2019-06-08T07:24:11Z</time>
      </trkpt>
      <trkpt lat="42.67296" lon="1.70985">
        <ele>1600.73</ele>
        <time>2019-06-08T07:24:21Z</time>
      </trkpt>
      <trkpt lat="42.67299" lon="1.70992">
        <ele>1604.1</ele>
        <time>2019-06-08T07:24:47Z</time>
      </trkpt>
      <trkpt lat="42.67302" lon="1.70996">
        <ele>1607.46</ele>
        <time>2019-06-08T07:25:00Z</time>
      </trkpt>
      <trkpt lat="42.67304" lon="1.70999">
        <ele>1607.46</ele>
        <time>2019-06-08T07:25:07Z</time>
      </trkpt>
      <trkpt lat="42.67292" lon="1.71009">
        <ele>1612.27</ele>
        <time>2019-06-08T07:25:45Z</time>
      </trkpt>
      <trkpt lat="42.67289" lon="1.71011">
        <ele>1612.27</ele>
        <time>2019-06-08T07:25:53Z</time>
      </trkpt>
      <trkpt lat="42.67285" lon="1.71016">
        <ele>1613.71</ele>
        <time>2019-06-08T07:26:07Z</time>
      </trkpt>
      <trkpt lat="42.67283" lon="1.71025">
        <ele>1617.56</ele>
        <time>2019-06-08T07:26:30Z</time>
      </trkpt>
      <trkpt lat="42.67283" lon="1.71026">
        <ele>1617.56</ele>
        <time>2019-06-08T07:26:31Z</time>
      </trkpt>
      <trkpt lat="42.67277" lon="1.71035">
        <ele>1619.48</ele>
        <time>2019-06-08T07:26:53Z</time>
      </trkpt>
      <trkpt lat="42.67264" lon="1.71041">
        <ele>1621.4</ele>
        <time>2019-06-08T07:27:16Z</time>
      </trkpt>
      <trkpt lat="42.67266" lon="1.71045">
        <ele>1626.69</ele>
        <time>2019-06-08T07:27:42Z</time>
      </trkpt>
      <trkpt lat="42.67264" lon="1.71049">
        <ele>1626.69</ele>
        <time>2019-06-08T07:27:56Z</time>
      </trkpt>
      <trkpt lat="42.67262" lon="1.71061">
        <ele>1631.49</ele>
        <time>2019-06-08T07:28:25Z</time>
      </trkpt>
      <trkpt lat="42.67265" lon="1.71065">
        <ele>1632.94</ele>
        <time>2019-06-08T07:28:57Z</time>
      </trkpt>
      <trkpt lat="42.67265" lon="1.71065">
        <ele>1636.3</ele>
        <time>2019-06-08T07:29:02Z</time>
      </trkpt>
      <trkpt lat="42.67265" lon="1.71065">
        <ele>1635.82</ele>
        <time>2019-06-08T07:29:07Z</time>
      </trkpt>
      <trkpt lat="42.67276" lon="1.71065">
        <ele>1639.19</ele>
        <time>2019-06-08T07:29:38Z</time>
      </trkpt>
      <trkpt lat="42.67279" lon="1.71067">
        <ele>1640.63</ele>
        <time>2019-06-08T07:29:58Z</time>
      </trkpt>
      <trkpt lat="42.67279" lon="1.71068">
        <ele>1643.99</ele>
        <time>2019-06-08T07:30:17Z</time>
      </trkpt>
      <trkpt lat="42.67281" lon="1.71075">
        <ele>1646.88</ele>
        <time>2019-06-08T07:30:41Z</time>
      </trkpt>
      <trkpt lat="42.67278" lon="1.71087">
        <ele>1651.2</ele>
        <time>2019-06-08T07:31:05Z</time>
      </trkpt>
      <trkpt lat="42.67278" lon="1.71087">
        <ele>1651.2</ele>
        <time>2019-06-08T07:31:06Z</time>
      </trkpt>
      <trkpt lat="42.67274" lon="1.71096">
        <ele>1651.68</ele>
        <time>2019-06-08T07:31:30Z</time>
      </trkpt>
      <trkpt lat="42.67276" lon="1.71103">
        <ele>1656.01</ele>
        <time>2019-06-08T07:31:46Z</time>
      </trkpt>
      <trkpt lat="42.67276" lon="1.71103">
        <ele>1656.01</ele>
        <time>2019-06-08T07:31:47Z</time>
      </trkpt>
      <trkpt lat="42.67282" lon="1.7111">
        <ele>1658.89</ele>
        <time>2019-06-08T07:32:25Z</time>
      </trkpt>
      <trkpt lat="42.67284" lon="1.71105">
        <ele>1662.26</ele>
        <time>2019-06-08T07:32:50Z</time>
      </trkpt>
      <trkpt lat="42.67289" lon="1.71105">
        <ele>1665.14</ele>
        <time>2019-06-08T07:33:05Z</time>
      </trkpt>
      <trkpt lat="42.67304" lon="1.71106">
        <ele>1664.66</ele>
        <time>2019-06-08T07:33:16Z</time>
      </trkpt>
      <trkpt lat="42.67305" lon="1.71112">
        <ele>1666.1</ele>
        <time>2019-06-08T07:33:35Z</time>
      </trkpt>
      <trkpt lat="42.67302" lon="1.71115">
        <ele>1669.47</ele>
        <time>2019-06-08T07:33:44Z</time>
      </trkpt>
      <trkpt lat="42.67303" lon="1.71124">
        <ele>1670.91</ele>
        <time>2019-06-08T07:33:59Z</time>
      </trkpt>
      <trkpt lat="42.67302" lon="1.71132">
        <ele>1674.27</ele>
        <time>2019-06-08T07:34:24Z</time>
      </trkpt>
      <trkpt lat="42.67302" lon="1.71141">
        <ele>1675.23</ele>
        <time>2019-06-08T07:34:44Z</time>
      </trkpt>
      <trkpt lat="42.673" lon="1.71163">
        <ele>1680.52</ele>
        <time>2019-06-08T07:35:11Z</time>
      </trkpt>
      <trkpt lat="42.673" lon="1.71177">
        <ele>1683.89</ele>
        <time>2019-06-08T07:35:36Z</time>
      </trkpt>
      <trkpt lat="42.6731" lon="1.71176">
        <ele>1685.81</ele>
        <time>2019-06-08T07:36:15Z</time>
      </trkpt>
      <trkpt lat="42.67311" lon="1.7118">
        <ele>1689.17</ele>
        <time>2019-06-08T07:36:19Z</time>
      </trkpt>
      <trkpt lat="42.67311" lon="1.71181">
        <ele>1689.17</ele>
        <time>2019-06-08T07:36:20Z</time>
      </trkpt>
      <trkpt lat="42.67313" lon="1.7119">
        <ele>1690.14</ele>
        <time>2019-06-08T07:36:41Z</time>
      </trkpt>
      <trkpt lat="42.67312" lon="1.71201">
        <ele>1693.5</ele>
        <time>2019-06-08T07:37:11Z</time>
      </trkpt>
      <trkpt lat="42.67312" lon="1.71206">
        <ele>1697.34</ele>
        <time>2019-06-08T07:37:33Z</time>
      </trkpt>
      <trkpt lat="42.67318" lon="1.71217">
        <ele>1699.27</ele>
        <time>2019-06-08T07:38:01Z</time>
      </trkpt>
      <trkpt lat="42.67321" lon="1.71227">
        <ele>1703.11</ele>
        <time>2019-06-08T07:38:15Z</time>
      </trkpt>
      <trkpt lat="42.67321" lon="1.71231">
        <ele>1701.19</ele>
        <time>2019-06-08T07:38:21Z</time>
      </trkpt>
      <trkpt lat="42.67322" lon="1.71243">
        <ele>1704.55</ele>
        <time>2019-06-08T07:38:37Z</time>
      </trkpt>
      <trkpt lat="42.6732" lon="1.71268">
        <ele>1708.4</ele>
        <time>2019-06-08T07:39:07Z</time>
      </trkpt>
      <trkpt lat="42.6732" lon="1.7127">
        <ele>1708.4</ele>
        <time>2019-06-08T07:39:09Z</time>
      </trkpt>
      <trkpt lat="42.67322" lon="1.71293">
        <ele>1712.73</ele>
        <time>2019-06-08T07:39:45Z</time>
      </trkpt>
      <trkpt lat="42.67324" lon="1.71302">
        <ele>1711.76</ele>
        <time>2019-06-08T07:39:55Z</time>
      </trkpt>
      <trkpt lat="42.67324" lon="1.71336">
        <ele>1715.61</ele>
        <time>2019-06-08T07:40:33Z</time>
      </trkpt>
      <trkpt lat="42.67324" lon="1.71342">
        <ele>1716.57</ele>
        <time>2019-06-08T07:40:39Z</time>
      </trkpt>
      <trkpt lat="42.67323" lon="1.71369">
        <ele>1720.42</ele>
        <time>2019-06-08T07:41:09Z</time>
      </trkpt>
      <trkpt lat="42.67323" lon="1.7137">
        <ele>1719.94</ele>
        <time>2019-06-08T07:41:11Z</time>
      </trkpt>
      <trkpt lat="42.67323" lon="1.71377">
        <ele>1721.86</ele>
        <time>2019-06-08T07:41:26Z</time>
      </trkpt>
      <trkpt lat="42.67324" lon="1.7138">
        <ele>1723.3</ele>
        <time>2019-06-08T07:41:38Z</time>
      </trkpt>
      <trkpt lat="42.67329" lon="1.71388">
        <ele>1726.18</ele>
        <time>2019-06-08T07:41:54Z</time>
      </trkpt>
      <trkpt lat="42.67329" lon="1.71388">
        <ele>1724.26</ele>
        <time>2019-06-08T07:41:55Z</time>
      </trkpt>
      <trkpt lat="42.67297" lon="1.71391">
        <ele>1728.11</ele>
        <time>2019-06-08T07:42:07Z</time>
      </trkpt>
      <trkpt lat="42.67295" lon="1.71396">
        <ele>1727.63</ele>
        <time>2019-06-08T07:42:18Z</time>
      </trkpt>
      <trkpt lat="42.6728" lon="1.71408">
        <ele>1730.99</ele>
        <time>2019-06-08T07:42:49Z</time>
      </trkpt>
      <trkpt lat="42.67283" lon="1.71444">
        <ele>1734.36</ele>
        <time>2019-06-08T07:43:33Z</time>
      </trkpt>
      <trkpt lat="42.6728" lon="1.7146">
        <ele>1738.68</ele>
        <time>2019-06-08T07:43:58Z</time>
      </trkpt>
      <trkpt lat="42.67278" lon="1.71464">
        <ele>1737.72</ele>
        <time>2019-06-08T07:44:11Z</time>
      </trkpt>
      <trkpt lat="42.67277" lon="1.71464">
        <ele>1736.76</ele>
        <time>2019-06-08T07:47:09Z</time>
      </trkpt>
      <trkpt lat="42.67277" lon="1.71464">
        <ele>1737.72</ele>
        <time>2019-06-08T07:49:07Z</time>
      </trkpt>
      <trkpt lat="42.67264" lon="1.71484">
        <ele>1737.24</ele>
        <time>2019-06-08T07:52:00Z</time>
      </trkpt>
      <trkpt lat="42.67252" lon="1.71528">
        <ele>1738.2</ele>
        <time>2019-06-08T07:52:51Z</time>
      </trkpt>
      <trkpt lat="42.67251" lon="1.71531">
        <ele>1738.2</ele>
        <time>2019-06-08T07:53:19Z</time>
      </trkpt>
      <trkpt lat="42.67245" lon="1.71566">
        <ele>1736.76</ele>
        <time>2019-06-08T07:53:54Z</time>
      </trkpt>
      <trkpt lat="42.67246" lon="1.71566">
        <ele>1738.2</ele>
        <time>2019-06-08T07:53:55Z</time>
      </trkpt>
      <trkpt lat="42.6725" lon="1.71588">
        <ele>1740.12</ele>
        <time>2019-06-08T07:54:15Z</time>
      </trkpt>
      <trkpt lat="42.67246" lon="1.71607">
        <ele>1743.01</ele>
        <time>2019-06-08T07:54:38Z</time>
      </trkpt>
      <trkpt lat="42.67243" lon="1.71613">
        <ele>1744.93</ele>
        <time>2019-06-08T07:55:09Z</time>
      </trkpt>
      <trkpt lat="42.67249" lon="1.71633">
        <ele>1744.45</ele>
        <time>2019-06-08T07:55:19Z</time>
      </trkpt>
      <trkpt lat="42.6726" lon="1.71644">
        <ele>1744.93</ele>
        <time>2019-06-08T07:55:54Z</time>
      </trkpt>
      <trkpt lat="42.67266" lon="1.71651">
        <ele>1744.45</ele>
        <time>2019-06-08T07:56:14Z</time>
      </trkpt>
      <trkpt lat="42.67268" lon="1.71675">
        <ele>1743.49</ele>
        <time>2019-06-08T07:56:31Z</time>
      </trkpt>
      <trkpt lat="42.67268" lon="1.71685">
        <ele>1745.41</ele>
        <time>2019-06-08T07:56:42Z</time>
      </trkpt>
      <trkpt lat="42.67269" lon="1.71703">
        <ele>1745.41</ele>
        <time>2019-06-08T07:56:52Z</time>
      </trkpt>
      <trkpt lat="42.67268" lon="1.71717">
        <ele>1743.49</ele>
        <time>2019-06-08T07:57:20Z</time>
      </trkpt>
      <trkpt lat="42.6727" lon="1.7175">
        <ele>1744.93</ele>
        <time>2019-06-08T07:57:59Z</time>
      </trkpt>
      <trkpt lat="42.67267" lon="1.71768">
        <ele>1744.93</ele>
        <time>2019-06-08T07:58:13Z</time>
      </trkpt>
      <trkpt lat="42.67265" lon="1.71806">
        <ele>1745.89</ele>
        <time>2019-06-08T07:58:43Z</time>
      </trkpt>
      <trkpt lat="42.67259" lon="1.71839">
        <ele>1745.89</ele>
        <time>2019-06-08T07:59:30Z</time>
      </trkpt>
      <trkpt lat="42.6724" lon="1.71858">
        <ele>1746.37</ele>
        <time>2019-06-08T08:00:07Z</time>
      </trkpt>
      <trkpt lat="42.6723" lon="1.71874">
        <ele>1747.33</ele>
        <time>2019-06-08T08:00:26Z</time>
      </trkpt>
      <trkpt lat="42.6723" lon="1.71886">
        <ele>1746.85</ele>
        <time>2019-06-08T08:00:36Z</time>
      </trkpt>
      <trkpt lat="42.67227" lon="1.71907">
        <ele>1748.78</ele>
        <time>2019-06-08T08:00:58Z</time>
      </trkpt>
      <trkpt lat="42.67213" lon="1.71926">
        <ele>1751.66</ele>
        <time>2019-06-08T08:01:38Z</time>
      </trkpt>
      <trkpt lat="42.67212" lon="1.71929">
        <ele>1751.66</ele>
        <time>2019-06-08T08:01:44Z</time>
      </trkpt>
      <trkpt lat="42.67211" lon="1.71944">
        <ele>1752.14</ele>
        <time>2019-06-08T08:02:28Z</time>
      </trkpt>
      <trkpt lat="42.67224" lon="1.71969">
        <ele>1756.47</ele>
        <time>2019-06-08T08:03:42Z</time>
      </trkpt>
      <trkpt lat="42.67223" lon="1.71973">
        <ele>1758.87</ele>
        <time>2019-06-08T08:03:55Z</time>
      </trkpt>
      <trkpt lat="42.67223" lon="1.71976">
        <ele>1758.39</ele>
        <time>2019-06-08T08:03:57Z</time>
      </trkpt>
      <trkpt lat="42.67226" lon="1.72009">
        <ele>1760.79</ele>
        <time>2019-06-08T08:04:42Z</time>
      </trkpt>
      <trkpt lat="42.67224" lon="1.72022">
        <ele>1760.79</ele>
        <time>2019-06-08T08:05:16Z</time>
      </trkpt>
      <trkpt lat="42.67214" lon="1.72036">
        <ele>1760.79</ele>
        <time>2019-06-08T08:05:40Z</time>
      </trkpt>
      <trkpt lat="42.67208" lon="1.72067">
        <ele>1762.23</ele>
        <time>2019-06-08T08:06:12Z</time>
      </trkpt>
      <trkpt lat="42.67206" lon="1.72083">
        <ele>1763.2</ele>
        <time>2019-06-08T08:06:24Z</time>
      </trkpt>
      <trkpt lat="42.67206" lon="1.72105">
        <ele>1764.16</ele>
        <time>2019-06-08T08:06:56Z</time>
      </trkpt>
      <trkpt lat="42.67194" lon="1.7213">
        <ele>1767.52</ele>
        <time>2019-06-08T08:07:37Z</time>
      </trkpt>
      <trkpt lat="42.6719" lon="1.72146">
        <ele>1770.89</ele>
        <time>2019-06-08T08:08:11Z</time>
      </trkpt>
      <trkpt lat="42.67189" lon="1.72184">
        <ele>1774.73</ele>
        <time>2019-06-08T08:08:58Z</time>
      </trkpt>
      <trkpt lat="42.6719" lon="1.7221">
        <ele>1776.65</ele>
        <time>2019-06-08T08:09:44Z</time>
      </trkpt>
      <trkpt lat="42.67192" lon="1.72239">
        <ele>1778.58</ele>
        <time>2019-06-08T08:10:27Z</time>
      </trkpt>
      <trkpt lat="42.67184" lon="1.72265">
        <ele>1783.38</ele>
        <time>2019-06-08T08:11:06Z</time>
      </trkpt>
      <trkpt lat="42.67181" lon="1.72279">
        <ele>1786.75</ele>
        <time>2019-06-08T08:11:34Z</time>
      </trkpt>
      <trkpt lat="42.67172" lon="1.72308">
        <ele>1790.59</ele>
        <time>2019-06-08T08:12:14Z</time>
      </trkpt>
      <trkpt lat="42.67167" lon="1.7233">
        <ele>1793.96</ele>
        <time>2019-06-08T08:12:46Z</time>
      </trkpt>
      <trkpt lat="42.67165" lon="1.72355">
        <ele>1797.8</ele>
        <time>2019-06-08T08:13:18Z</time>
      </trkpt>
      <trkpt lat="42.67169" lon="1.72366">
        <ele>1798.76</ele>
        <time>2019-06-08T08:13:34Z</time>
      </trkpt>
      <trkpt lat="42.67177" lon="1.72383">
        <ele>1800.69</ele>
        <time>2019-06-08T08:13:56Z</time>
      </trkpt>
      <trkpt lat="42.67182" lon="1.72402">
        <ele>1804.05</ele>
        <time>2019-06-08T08:14:22Z</time>
      </trkpt>
      <trkpt lat="42.67181" lon="1.72423">
        <ele>1806.45</ele>
        <time>2019-06-08T08:14:57Z</time>
      </trkpt>
      <trkpt lat="42.6717" lon="1.72444">
        <ele>1805.01</ele>
        <time>2019-06-08T08:15:21Z</time>
      </trkpt>
      <trkpt lat="42.67154" lon="1.72471">
        <ele>1805.49</ele>
        <time>2019-06-08T08:15:57Z</time>
      </trkpt>
      <trkpt lat="42.6714" lon="1.72495">
        <ele>1808.86</ele>
        <time>2019-06-08T08:16:31Z</time>
      </trkpt>
      <trkpt lat="42.67125" lon="1.72522">
        <ele>1812.7</ele>
        <time>2019-06-08T08:17:09Z</time>
      </trkpt>
      <trkpt lat="42.67122" lon="1.7253">
        <ele>1812.7</ele>
        <time>2019-06-08T08:17:20Z</time>
      </trkpt>
      <trkpt lat="42.67114" lon="1.72551">
        <ele>1816.07</ele>
        <time>2019-06-08T08:17:45Z</time>
      </trkpt>
      <trkpt lat="42.67109" lon="1.72562">
        <ele>1816.07</ele>
        <time>2019-06-08T08:17:59Z</time>
      </trkpt>
      <trkpt lat="42.671" lon="1.72568">
        <ele>1819.43</ele>
        <time>2019-06-08T08:18:15Z</time>
      </trkpt>
      <trkpt lat="42.67092" lon="1.72575">
        <ele>1819.43</ele>
        <time>2019-06-08T08:18:28Z</time>
      </trkpt>
      <trkpt lat="42.67083" lon="1.72585">
        <ele>1822.8</ele>
        <time>2019-06-08T08:18:48Z</time>
      </trkpt>
      <trkpt lat="42.67057" lon="1.72623">
        <ele>1823.76</ele>
        <time>2019-06-08T08:19:46Z</time>
      </trkpt>
      <trkpt lat="42.67028" lon="1.72663">
        <ele>1826.16</ele>
        <time>2019-06-08T08:20:39Z</time>
      </trkpt>
      <trkpt lat="42.67021" lon="1.72686">
        <ele>1829.53</ele>
        <time>2019-06-08T08:21:07Z</time>
      </trkpt>
      <trkpt lat="42.67014" lon="1.72686">
        <ele>1830.97</ele>
        <time>2019-06-08T08:21:23Z</time>
      </trkpt>
      <trkpt lat="42.66983" lon="1.72695">
        <ele>1834.33</ele>
        <time>2019-06-08T08:22:13Z</time>
      </trkpt>
      <trkpt lat="42.6696" lon="1.7271">
        <ele>1835.29</ele>
        <time>2019-06-08T08:22:49Z</time>
      </trkpt>
      <trkpt lat="42.66957" lon="1.72701">
        <ele>1836.26</ele>
        <time>2019-06-08T08:23:24Z</time>
      </trkpt>
      <trkpt lat="42.66934" lon="1.72688">
        <ele>1840.58</ele>
        <time>2019-06-08T08:23:58Z</time>
      </trkpt>
      <trkpt lat="42.66913" lon="1.72695">
        <ele>1840.58</ele>
        <time>2019-06-08T08:24:41Z</time>
      </trkpt>
      <trkpt lat="42.6691" lon="1.72698">
        <ele>1841.06</ele>
        <time>2019-06-08T08:24:50Z</time>
      </trkpt>
      <trkpt lat="42.66896" lon="1.72722">
        <ele>1842.5</ele>
        <time>2019-06-08T08:25:16Z</time>
      </trkpt>
      <trkpt lat="42.66872" lon="1.72774">
        <ele>1842.98</ele>
        <time>2019-06-08T08:26:12Z</time>
      </trkpt>
      <trkpt lat="42.66842" lon="1.72806">
        <ele>1842.98</ele>
        <time>2019-06-08T08:27:05Z</time>
      </trkpt>
      <trkpt lat="42.66827" lon="1.72815">
        <ele>1845.87</ele>
        <time>2019-06-08T08:27:43Z</time>
      </trkpt>
      <trkpt lat="42.66823" lon="1.72817">
        <ele>1842.5</ele>
        <time>2019-06-08T08:27:47Z</time>
      </trkpt>
      <trkpt lat="42.66804" lon="1.72834">
        <ele>1843.47</ele>
        <time>2019-06-08T08:28:14Z</time>
      </trkpt>
      <trkpt lat="42.66793" lon="1.72844">
        <ele>1841.54</ele>
        <time>2019-06-08T08:28:39Z</time>
      </trkpt>
      <trkpt lat="42.66751" lon="1.72859">
        <ele>1842.02</ele>
        <time>2019-06-08T08:29:21Z</time>
      </trkpt>
      <trkpt lat="42.66719" lon="1.72877">
        <ele>1843.47</ele>
        <time>2019-06-08T08:30:03Z</time>
      </trkpt>
      <trkpt lat="42.66709" lon="1.72883">
        <ele>1843.47</ele>
        <time>2019-06-08T08:30:16Z</time>
      </trkpt>
      <trkpt lat="42.66683" lon="1.729">
        <ele>1844.91</ele>
        <time>2019-06-08T08:30:45Z</time>
      </trkpt>
      <trkpt lat="42.66677" lon="1.72901">
        <ele>1845.39</ele>
        <time>2019-06-08T08:30:52Z</time>
      </trkpt>
      <trkpt lat="42.66656" lon="1.72911">
        <ele>1842.5</ele>
        <time>2019-06-08T08:31:16Z</time>
      </trkpt>
      <trkpt lat="42.66635" lon="1.72927">
        <ele>1846.83</ele>
        <time>2019-06-08T08:31:44Z</time>
      </trkpt>
      <trkpt lat="42.66611" lon="1.72944">
        <ele>1848.27</ele>
        <time>2019-06-08T08:32:15Z</time>
      </trkpt>
      <trkpt lat="42.66606" lon="1.7295">
        <ele>1848.27</ele>
        <time>2019-06-08T08:32:24Z</time>
      </trkpt>
      <trkpt lat="42.66579" lon="1.72965">
        <ele>1849.71</ele>
        <time>2019-06-08T08:33:04Z</time>
      </trkpt>
      <trkpt lat="42.66559" lon="1.7298">
        <ele>1853.08</ele>
        <time>2019-06-08T08:33:36Z</time>
      </trkpt>
      <trkpt lat="42.66554" lon="1.72985">
        <ele>1853.08</ele>
        <time>2019-06-08T08:33:46Z</time>
      </trkpt>
      <trkpt lat="42.66535" lon="1.72994">
        <ele>1855</ele>
        <time>2019-06-08T08:34:15Z</time>
      </trkpt>
      <trkpt lat="42.66513" lon="1.73012">
        <ele>1858.37</ele>
        <time>2019-06-08T08:34:52Z</time>
      </trkpt>
      <trkpt lat="42.6649" lon="1.73026">
        <ele>1861.25</ele>
        <time>2019-06-08T08:35:27Z</time>
      </trkpt>
      <trkpt lat="42.6647" lon="1.73028">
        <ele>1864.13</ele>
        <time>2019-06-08T08:36:01Z</time>
      </trkpt>
      <trkpt lat="42.66442" lon="1.73046">
        <ele>1867.02</ele>
        <time>2019-06-08T08:36:49Z</time>
      </trkpt>
      <trkpt lat="42.66427" lon="1.73058">
        <ele>1869.9</ele>
        <time>2019-06-08T08:37:26Z</time>
      </trkpt>
      <trkpt lat="42.66423" lon="1.7306">
        <ele>1873.27</ele>
        <time>2019-06-08T08:37:31Z</time>
      </trkpt>
      <trkpt lat="42.66421" lon="1.73059">
        <ele>1869.42</ele>
        <time>2019-06-08T08:37:34Z</time>
      </trkpt>
      <trkpt lat="42.66403" lon="1.73058">
        <ele>1874.23</ele>
        <time>2019-06-08T08:38:08Z</time>
      </trkpt>
      <trkpt lat="42.66397" lon="1.7306">
        <ele>1874.23</ele>
        <time>2019-06-08T08:38:20Z</time>
      </trkpt>
      <trkpt lat="42.66379" lon="1.73069">
        <ele>1877.11</ele>
        <time>2019-06-08T08:38:59Z</time>
      </trkpt>
      <trkpt lat="42.66364" lon="1.73073">
        <ele>1878.55</ele>
        <time>2019-06-08T08:39:25Z</time>
      </trkpt>
      <trkpt lat="42.66335" lon="1.73085">
        <ele>1882.4</ele>
        <time>2019-06-08T08:40:21Z</time>
      </trkpt>
      <trkpt lat="42.66306" lon="1.73087">
        <ele>1884.32</ele>
        <time>2019-06-08T08:41:10Z</time>
      </trkpt>
      <trkpt lat="42.6629" lon="1.73094">
        <ele>1887.69</ele>
        <time>2019-06-08T08:41:34Z</time>
      </trkpt>
      <trkpt lat="42.66284" lon="1.73095">
        <ele>1891.05</ele>
        <time>2019-06-08T08:41:46Z</time>
      </trkpt>
      <trkpt lat="42.66266" lon="1.73097">
        <ele>1890.57</ele>
        <time>2019-06-08T08:42:40Z</time>
      </trkpt>
      <trkpt lat="42.66259" lon="1.73092">
        <ele>1894.9</ele>
        <time>2019-06-08T08:43:04Z</time>
      </trkpt>
      <trkpt lat="42.66254" lon="1.73083">
        <ele>1898.74</ele>
        <time>2019-06-08T08:43:30Z</time>
      </trkpt>
      <trkpt lat="42.6625" lon="1.73078">
        <ele>1904.99</ele>
        <time>2019-06-08T08:43:44Z</time>
      </trkpt>
      <trkpt lat="42.6625" lon="1.73077">
        <ele>1901.63</ele>
        <time>2019-06-08T08:43:52Z</time>
      </trkpt>
      <trkpt lat="42.66233" lon="1.73069">
        <ele>1905.47</ele>
        <time>2019-06-08T08:44:31Z</time>
      </trkpt>
      <trkpt lat="42.6622" lon="1.7306">
        <ele>1909.8</ele>
        <time>2019-06-08T08:45:06Z</time>
      </trkpt>
      <trkpt lat="42.6622" lon="1.7306">
        <ele>1909.8</ele>
        <time>2019-06-08T08:45:07Z</time>
      </trkpt>
      <trkpt lat="42.66211" lon="1.73052">
        <ele>1913.16</ele>
        <time>2019-06-08T08:45:33Z</time>
      </trkpt>
      <trkpt lat="42.66205" lon="1.73041">
        <ele>1917.97</ele>
        <time>2019-06-08T08:46:08Z</time>
      </trkpt>
      <trkpt lat="42.66205" lon="1.73037">
        <ele>1917.97</ele>
        <time>2019-06-08T08:46:18Z</time>
      </trkpt>
      <trkpt lat="42.66198" lon="1.73025">
        <ele>1921.33</ele>
        <time>2019-06-08T08:46:44Z</time>
      </trkpt>
      <trkpt lat="42.66183" lon="1.73018">
        <ele>1926.62</ele>
        <time>2019-06-08T08:47:25Z</time>
      </trkpt>
      <trkpt lat="42.66181" lon="1.73016">
        <ele>1926.62</ele>
        <time>2019-06-08T08:47:30Z</time>
      </trkpt>
      <trkpt lat="42.66172" lon="1.73004">
        <ele>1930.95</ele>
        <time>2019-06-08T08:48:08Z</time>
      </trkpt>
      <trkpt lat="42.6616" lon="1.73003">
        <ele>1935.75</ele>
        <time>2019-06-08T08:49:02Z</time>
      </trkpt>
      <trkpt lat="42.66152" lon="1.73">
        <ele>1935.27</ele>
        <time>2019-06-08T08:49:14Z</time>
      </trkpt>
      <trkpt lat="42.66139" lon="1.72998">
        <ele>1937.19</ele>
        <time>2019-06-08T08:49:57Z</time>
      </trkpt>
      <trkpt lat="42.66125" lon="1.72987">
        <ele>1941.04</ele>
        <time>2019-06-08T08:51:07Z</time>
      </trkpt>
      <trkpt lat="42.66107" lon="1.72983">
        <ele>1944.88</ele>
        <time>2019-06-08T08:51:42Z</time>
      </trkpt>
      <trkpt lat="42.661" lon="1.72983">
        <ele>1945.85</ele>
        <time>2019-06-08T08:52:02Z</time>
      </trkpt>
      <trkpt lat="42.66086" lon="1.72977">
        <ele>1950.17</ele>
        <time>2019-06-08T08:52:33Z</time>
      </trkpt>
      <trkpt lat="42.66085" lon="1.72976">
        <ele>1951.13</ele>
        <time>2019-06-08T08:52:38Z</time>
      </trkpt>
      <trkpt lat="42.66064" lon="1.72977">
        <ele>1954.5</ele>
        <time>2019-06-08T08:53:14Z</time>
      </trkpt>
      <trkpt lat="42.66042" lon="1.72971">
        <ele>1959.78</ele>
        <time>2019-06-08T08:53:50Z</time>
      </trkpt>
      <trkpt lat="42.66042" lon="1.7297">
        <ele>1958.82</ele>
        <time>2019-06-08T08:53:52Z</time>
      </trkpt>
      <trkpt lat="42.66029" lon="1.72961">
        <ele>1962.67</ele>
        <time>2019-06-08T08:54:27Z</time>
      </trkpt>
      <trkpt lat="42.66015" lon="1.72948">
        <ele>1967.48</ele>
        <time>2019-06-08T08:55:04Z</time>
      </trkpt>
      <trkpt lat="42.66009" lon="1.72946">
        <ele>1970.84</ele>
        <time>2019-06-08T08:55:15Z</time>
      </trkpt>
      <trkpt lat="42.65998" lon="1.72939">
        <ele>1974.69</ele>
        <time>2019-06-08T08:55:58Z</time>
      </trkpt>
      <trkpt lat="42.65991" lon="1.72936">
        <ele>1978.05</ele>
        <time>2019-06-08T08:56:13Z</time>
      </trkpt>
      <trkpt lat="42.6598" lon="1.72929">
        <ele>1981.9</ele>
        <time>2019-06-08T08:56:49Z</time>
      </trkpt>
      <trkpt lat="42.65973" lon="1.72927">
        <ele>1986.22</ele>
        <time>2019-06-08T08:57:17Z</time>
      </trkpt>
      <trkpt lat="42.6597" lon="1.72927">
        <ele>1985.74</ele>
        <time>2019-06-08T08:57:28Z</time>
      </trkpt>
      <trkpt lat="42.65948" lon="1.72922">
        <ele>1989.59</ele>
        <time>2019-06-08T08:57:59Z</time>
      </trkpt>
      <trkpt lat="42.65938" lon="1.72908">
        <ele>1991.51</ele>
        <time>2019-06-08T08:58:23Z</time>
      </trkpt>
      <trkpt lat="42.65928" lon="1.72898">
        <ele>1993.91</ele>
        <time>2019-06-08T08:58:43Z</time>
      </trkpt>
      <trkpt lat="42.65917" lon="1.72883">
        <ele>1997.28</ele>
        <time>2019-06-08T08:59:08Z</time>
      </trkpt>
      <trkpt lat="42.65913" lon="1.7287">
        <ele>1999.2</ele>
        <time>2019-06-08T08:59:31Z</time>
      </trkpt>
      <trkpt lat="42.65912" lon="1.72864">
        <ele>2004.01</ele>
        <time>2019-06-08T08:59:58Z</time>
      </trkpt>
      <trkpt lat="42.65922" lon="1.72856">
        <ele>2007.37</ele>
        <time>2019-06-08T09:00:31Z</time>
      </trkpt>
      <trkpt lat="42.65923" lon="1.7285">
        <ele>2008.33</ele>
        <time>2019-06-08T09:00:45Z</time>
      </trkpt>
      <trkpt lat="42.65917" lon="1.72845">
        <ele>2012.18</ele>
        <time>2019-06-08T09:01:35Z</time>
      </trkpt>
      <trkpt lat="42.65917" lon="1.72846">
        <ele>2008.33</ele>
        <time>2019-06-08T09:01:48Z</time>
      </trkpt>
      <trkpt lat="42.65917" lon="1.72846">
        <ele>2003.52</ele>
        <time>2019-06-08T09:06:44Z</time>
      </trkpt>
      <trkpt lat="42.65917" lon="1.72846">
        <ele>2009.77</ele>
        <time>2019-06-08T09:06:45Z</time>
      </trkpt>
      <trkpt lat="42.65916" lon="1.72845">
        <ele>2011.7</ele>
        <time>2019-06-08T09:06:54Z</time>
      </trkpt>
      <trkpt lat="42.65916" lon="1.72845">
        <ele>2012.66</ele>
        <time>2019-06-08T09:07:35Z</time>
      </trkpt>
      <trkpt lat="42.65908" lon="1.72821">
        <ele>2012.18</ele>
        <time>2019-06-08T09:08:00Z</time>
      </trkpt>
      <trkpt lat="42.65917" lon="1.72797">
        <ele>2014.1</ele>
        <time>2019-06-08T09:08:25Z</time>
      </trkpt>
      <trkpt lat="42.6592" lon="1.72784">
        <ele>2015.06</ele>
        <time>2019-06-08T09:08:41Z</time>
      </trkpt>
      <trkpt lat="42.65925" lon="1.72769">
        <ele>2018.43</ele>
        <time>2019-06-08T09:09:03Z</time>
      </trkpt>
      <trkpt lat="42.65925" lon="1.72769">
        <ele>2018.43</ele>
        <time>2019-06-08T09:09:04Z</time>
      </trkpt>
      <trkpt lat="42.65935" lon="1.72751">
        <ele>2021.31</ele>
        <time>2019-06-08T09:09:35Z</time>
      </trkpt>
      <trkpt lat="42.65958" lon="1.72742">
        <ele>2022.27</ele>
        <time>2019-06-08T09:10:02Z</time>
      </trkpt>
      <trkpt lat="42.65983" lon="1.72723">
        <ele>2020.35</ele>
        <time>2019-06-08T09:10:30Z</time>
      </trkpt>
      <trkpt lat="42.65984" lon="1.7272">
        <ele>2020.83</ele>
        <time>2019-06-08T09:10:32Z</time>
      </trkpt>
      <trkpt lat="42.65984" lon="1.7269">
        <ele>2024.67</ele>
        <time>2019-06-08T09:10:58Z</time>
      </trkpt>
      <trkpt lat="42.65978" lon="1.72681">
        <ele>2023.71</ele>
        <time>2019-06-08T09:11:12Z</time>
      </trkpt>
      <trkpt lat="42.65976" lon="1.7268">
        <ele>2022.75</ele>
        <time>2019-06-08T09:11:58Z</time>
      </trkpt>
      <trkpt lat="42.65985" lon="1.72671">
        <ele>2021.31</ele>
        <time>2019-06-08T09:12:14Z</time>
      </trkpt>
      <trkpt lat="42.65985" lon="1.72665">
        <ele>2022.27</ele>
        <time>2019-06-08T09:12:18Z</time>
      </trkpt>
      <trkpt lat="42.65978" lon="1.72624">
        <ele>2025.15</ele>
        <time>2019-06-08T09:12:55Z</time>
      </trkpt>
      <trkpt lat="42.6602" lon="1.72603">
        <ele>2022.75</ele>
        <time>2019-06-08T09:13:50Z</time>
      </trkpt>
      <trkpt lat="42.66031" lon="1.72582">
        <ele>2024.67</ele>
        <time>2019-06-08T09:14:23Z</time>
      </trkpt>
      <trkpt lat="42.66033" lon="1.72575">
        <ele>2029.48</ele>
        <time>2019-06-08T09:14:48Z</time>
      </trkpt>
      <trkpt lat="42.66034" lon="1.72575">
        <ele>2029.48</ele>
        <time>2019-06-08T09:14:49Z</time>
      </trkpt>
      <trkpt lat="42.66044" lon="1.72572">
        <ele>2030.92</ele>
        <time>2019-06-08T09:15:08Z</time>
      </trkpt>
      <trkpt lat="42.66066" lon="1.72548">
        <ele>2034.77</ele>
        <time>2019-06-08T09:15:53Z</time>
      </trkpt>
      <trkpt lat="42.66069" lon="1.72546">
        <ele>2034.77</ele>
        <time>2019-06-08T09:15:58Z</time>
      </trkpt>
      <trkpt lat="42.66083" lon="1.72529">
        <ele>2039.57</ele>
        <time>2019-06-08T09:16:34Z</time>
      </trkpt>
      <trkpt lat="42.6609" lon="1.72523">
        <ele>2041.02</ele>
        <time>2019-06-08T09:16:57Z</time>
      </trkpt>
      <trkpt lat="42.66098" lon="1.72515">
        <ele>2044.38</ele>
        <time>2019-06-08T09:17:16Z</time>
      </trkpt>
      <trkpt lat="42.66105" lon="1.72509">
        <ele>2045.34</ele>
        <time>2019-06-08T09:17:33Z</time>
      </trkpt>
      <trkpt lat="42.66122" lon="1.7249">
        <ele>2049.67</ele>
        <time>2019-06-08T09:18:15Z</time>
      </trkpt>
      <trkpt lat="42.66143" lon="1.72483">
        <ele>2050.63</ele>
        <time>2019-06-08T09:18:45Z</time>
      </trkpt>
      <trkpt lat="42.66163" lon="1.72477">
        <ele>2046.78</ele>
        <time>2019-06-08T09:19:07Z</time>
      </trkpt>
      <trkpt lat="42.6617" lon="1.72477">
        <ele>2046.78</ele>
        <time>2019-06-08T09:19:21Z</time>
      </trkpt>
      <trkpt lat="42.66176" lon="1.72479">
        <ele>2050.63</ele>
        <time>2019-06-08T09:19:35Z</time>
      </trkpt>
      <trkpt lat="42.66187" lon="1.72478">
        <ele>2056.88</ele>
        <time>2019-06-08T09:20:14Z</time>
      </trkpt>
      <trkpt lat="42.66187" lon="1.72477">
        <ele>2054.96</ele>
        <time>2019-06-08T09:20:15Z</time>
      </trkpt>
      <trkpt lat="42.6619" lon="1.7247">
        <ele>2059.76</ele>
        <time>2019-06-08T09:20:48Z</time>
      </trkpt>
      <trkpt lat="42.66204" lon="1.72451">
        <ele>2063.61</ele>
        <time>2019-06-08T09:21:28Z</time>
      </trkpt>
      <trkpt lat="42.66212" lon="1.72435">
        <ele>2067.45</ele>
        <time>2019-06-08T09:21:54Z</time>
      </trkpt>
      <trkpt lat="42.66216" lon="1.72431">
        <ele>2067.45</ele>
        <time>2019-06-08T09:22:01Z</time>
      </trkpt>
      <trkpt lat="42.66232" lon="1.72417">
        <ele>2070.82</ele>
        <time>2019-06-08T09:22:28Z</time>
      </trkpt>
      <trkpt lat="42.66232" lon="1.72417">
        <ele>2070.34</ele>
        <time>2019-06-08T09:22:29Z</time>
      </trkpt>
      <trkpt lat="42.66238" lon="1.72394">
        <ele>2074.18</ele>
        <time>2019-06-08T09:23:09Z</time>
      </trkpt>
      <trkpt lat="42.6624" lon="1.72389">
        <ele>2077.55</ele>
        <time>2019-06-08T09:23:25Z</time>
      </trkpt>
      <trkpt lat="42.66249" lon="1.72381">
        <ele>2083.31</ele>
        <time>2019-06-08T09:23:59Z</time>
      </trkpt>
      <trkpt lat="42.66251" lon="1.72375">
        <ele>2082.35</ele>
        <time>2019-06-08T09:24:09Z</time>
      </trkpt>
      <trkpt lat="42.66253" lon="1.72371">
        <ele>2085.72</ele>
        <time>2019-06-08T09:24:26Z</time>
      </trkpt>
      <trkpt lat="42.66244" lon="1.72341">
        <ele>2089.56</ele>
        <time>2019-06-08T09:25:22Z</time>
      </trkpt>
      <trkpt lat="42.66242" lon="1.72342">
        <ele>2088.6</ele>
        <time>2019-06-08T09:25:27Z</time>
      </trkpt>
      <trkpt lat="42.66232" lon="1.72339">
        <ele>2091.49</ele>
        <time>2019-06-08T09:26:25Z</time>
      </trkpt>
      <trkpt lat="42.66205" lon="1.72335">
        <ele>2095.81</ele>
        <time>2019-06-08T09:27:25Z</time>
      </trkpt>
      <trkpt lat="42.66203" lon="1.72334">
        <ele>2095.33</ele>
        <time>2019-06-08T09:27:29Z</time>
      </trkpt>
      <trkpt lat="42.66198" lon="1.72325">
        <ele>2098.7</ele>
        <time>2019-06-08T09:27:59Z</time>
      </trkpt>
      <trkpt lat="42.66198" lon="1.72313">
        <ele>2102.54</ele>
        <time>2019-06-08T09:28:26Z</time>
      </trkpt>
      <trkpt lat="42.66195" lon="1.72306">
        <ele>2107.35</ele>
        <time>2019-06-08T09:29:04Z</time>
      </trkpt>
      <trkpt lat="42.66182" lon="1.72303">
        <ele>2113.12</ele>
        <time>2019-06-08T09:29:47Z</time>
      </trkpt>
      <trkpt lat="42.66176" lon="1.72303">
        <ele>2111.67</ele>
        <time>2019-06-08T09:30:02Z</time>
      </trkpt>
      <trkpt lat="42.66171" lon="1.72304">
        <ele>2115.04</ele>
        <time>2019-06-08T09:30:17Z</time>
      </trkpt>
      <trkpt lat="42.6617" lon="1.72303">
        <ele>2114.08</ele>
        <time>2019-06-08T09:30:19Z</time>
      </trkpt>
      <trkpt lat="42.66169" lon="1.72303">
        <ele>2117.44</ele>
        <time>2019-06-08T09:30:26Z</time>
      </trkpt>
      <trkpt lat="42.66165" lon="1.72304">
        <ele>2117.44</ele>
        <time>2019-06-08T09:30:38Z</time>
      </trkpt>
      <trkpt lat="42.6616" lon="1.72286">
        <ele>2122.73</ele>
        <time>2019-06-08T09:31:30Z</time>
      </trkpt>
      <trkpt lat="42.66155" lon="1.72269">
        <ele>2126.57</ele>
        <time>2019-06-08T09:32:06Z</time>
      </trkpt>
      <trkpt lat="42.66155" lon="1.72269">
        <ele>2126.57</ele>
        <time>2019-06-08T09:32:07Z</time>
      </trkpt>
      <trkpt lat="42.6614" lon="1.72264">
        <ele>2130.42</ele>
        <time>2019-06-08T09:32:59Z</time>
      </trkpt>
      <trkpt lat="42.66134" lon="1.7226">
        <ele>2134.26</ele>
        <time>2019-06-08T09:34:20Z</time>
      </trkpt>
      <trkpt lat="42.66126" lon="1.72248">
        <ele>2140.03</ele>
        <time>2019-06-08T09:37:58Z</time>
      </trkpt>
      <trkpt lat="42.66133" lon="1.7224">
        <ele>2143.4</ele>
        <time>2019-06-08T09:38:29Z</time>
      </trkpt>
      <trkpt lat="42.66136" lon="1.72234">
        <ele>2148.2</ele>
        <time>2019-06-08T09:38:54Z</time>
      </trkpt>
      <trkpt lat="42.66133" lon="1.72223">
        <ele>2153.01</ele>
        <time>2019-06-08T09:39:40Z</time>
      </trkpt>
      <trkpt lat="42.66138" lon="1.72219">
        <ele>2156.86</ele>
        <time>2019-06-08T09:40:05Z</time>
      </trkpt>
      <trkpt lat="42.66144" lon="1.72215">
        <ele>2160.22</ele>
        <time>2019-06-08T09:40:34Z</time>
      </trkpt>
      <trkpt lat="42.66145" lon="1.72214">
        <ele>2159.26</ele>
        <time>2019-06-08T09:40:48Z</time>
      </trkpt>
      <trkpt lat="42.66145" lon="1.72203">
        <ele>2165.03</ele>
        <time>2019-06-08T09:43:03Z</time>
      </trkpt>
      <trkpt lat="42.6614" lon="1.72199">
        <ele>2169.35</ele>
        <time>2019-06-08T09:43:37Z</time>
      </trkpt>
      <trkpt lat="42.66138" lon="1.72197">
        <ele>2169.35</ele>
        <time>2019-06-08T09:43:49Z</time>
      </trkpt>
      <trkpt lat="42.6613" lon="1.72192">
        <ele>2173.68</ele>
        <time>2019-06-08T09:44:16Z</time>
      </trkpt>
      <trkpt lat="42.66126" lon="1.7219">
        <ele>2173.68</ele>
        <time>2019-06-08T09:44:31Z</time>
      </trkpt>
      <trkpt lat="42.66122" lon="1.7219">
        <ele>2177.04</ele>
        <time>2019-06-08T09:44:58Z</time>
      </trkpt>
      <trkpt lat="42.66116" lon="1.72182">
        <ele>2180.89</ele>
        <time>2019-06-08T09:45:20Z</time>
      </trkpt>
      <trkpt lat="42.66106" lon="1.72179">
        <ele>2185.21</ele>
        <time>2019-06-08T09:45:56Z</time>
      </trkpt>
      <trkpt lat="42.66105" lon="1.72177">
        <ele>2188.58</ele>
        <time>2019-06-08T09:46:10Z</time>
      </trkpt>
      <trkpt lat="42.66105" lon="1.72171">
        <ele>2191.94</ele>
        <time>2019-06-08T09:47:33Z</time>
      </trkpt>
      <trkpt lat="42.66099" lon="1.72166">
        <ele>2196.75</ele>
        <time>2019-06-08T09:50:32Z</time>
      </trkpt>
      <trkpt lat="42.66093" lon="1.72165">
        <ele>2200.11</ele>
        <time>2019-06-08T09:50:52Z</time>
      </trkpt>
      <trkpt lat="42.66086" lon="1.72163">
        <ele>2203.96</ele>
        <time>2019-06-08T09:51:16Z</time>
      </trkpt>
      <trkpt lat="42.66086" lon="1.72163">
        <ele>2203.96</ele>
        <time>2019-06-08T09:51:17Z</time>
      </trkpt>
      <trkpt lat="42.6608" lon="1.7216">
        <ele>2208.29</ele>
        <time>2019-06-08T09:52:11Z</time>
      </trkpt>
      <trkpt lat="42.66064" lon="1.72149">
        <ele>2211.65</ele>
        <time>2019-06-08T09:52:41Z</time>
      </trkpt>
      <trkpt lat="42.66055" lon="1.72146">
        <ele>2215.5</ele>
        <time>2019-06-08T09:52:54Z</time>
      </trkpt>
      <trkpt lat="42.66038" lon="1.72143">
        <ele>2218.86</ele>
        <time>2019-06-08T09:53:40Z</time>
      </trkpt>
      <trkpt lat="42.66029" lon="1.72139">
        <ele>2221.26</ele>
        <time>2019-06-08T09:54:06Z</time>
      </trkpt>
      <trkpt lat="42.66017" lon="1.72134">
        <ele>2223.67</ele>
        <time>2019-06-08T09:54:34Z</time>
      </trkpt>
      <trkpt lat="42.66012" lon="1.72126">
        <ele>2226.07</ele>
        <time>2019-06-08T09:54:50Z</time>
      </trkpt>
      <trkpt lat="42.65992" lon="1.72111">
        <ele>2229.92</ele>
        <time>2019-06-08T09:55:37Z</time>
      </trkpt>
      <trkpt lat="42.65989" lon="1.72111">
        <ele>2230.4</ele>
        <time>2019-06-08T09:56:39Z</time>
      </trkpt>
      <trkpt lat="42.65975" lon="1.72098">
        <ele>2231.84</ele>
        <time>2019-06-08T09:57:24Z</time>
      </trkpt>
      <trkpt lat="42.65971" lon="1.72097">
        <ele>2228.47</ele>
        <time>2019-06-08T09:57:32Z</time>
      </trkpt>
      <trkpt lat="42.65968" lon="1.72096">
        <ele>2230.88</ele>
        <time>2019-06-08T09:57:50Z</time>
      </trkpt>
      <trkpt lat="42.65964" lon="1.72104">
        <ele>2229.92</ele>
        <time>2019-06-08T09:58:10Z</time>
      </trkpt>
      <trkpt lat="42.6596" lon="1.72115">
        <ele>2229.43</ele>
        <time>2019-06-08T09:58:36Z</time>
      </trkpt>
      <trkpt lat="42.65942" lon="1.72109">
        <ele>2234.24</ele>
        <time>2019-06-08T09:59:13Z</time>
      </trkpt>
      <trkpt lat="42.65942" lon="1.72109">
        <ele>2234.24</ele>
        <time>2019-06-08T09:59:14Z</time>
      </trkpt>
      <trkpt lat="42.65927" lon="1.72105">
        <ele>2239.53</ele>
        <time>2019-06-08T09:59:49Z</time>
      </trkpt>
      <trkpt lat="42.65923" lon="1.72103">
        <ele>2239.53</ele>
        <time>2019-06-08T10:00:00Z</time>
      </trkpt>
      <trkpt lat="42.65915" lon="1.72106">
        <ele>2245.78</ele>
        <time>2019-06-08T10:00:37Z</time>
      </trkpt>
      <trkpt lat="42.65915" lon="1.72106">
        <ele>2244.33</ele>
        <time>2019-06-08T10:00:40Z</time>
      </trkpt>
      <trkpt lat="42.65909" lon="1.72118">
        <ele>2246.26</ele>
        <time>2019-06-08T10:01:04Z</time>
      </trkpt>
      <trkpt lat="42.65909" lon="1.72118">
        <ele>2248.66</ele>
        <time>2019-06-08T10:01:19Z</time>
      </trkpt>
      <trkpt lat="42.65909" lon="1.72118">
        <ele>2253.47</ele>
        <time>2019-06-08T10:01:49Z</time>
      </trkpt>
      <trkpt lat="42.65909" lon="1.72118">
        <ele>2253.47</ele>
        <time>2019-06-08T10:01:50Z</time>
      </trkpt>
      <trkpt lat="42.65897" lon="1.72124">
        <ele>2257.31</ele>
        <time>2019-06-08T10:03:32Z</time>
      </trkpt>
      <trkpt lat="42.6589" lon="1.72128">
        <ele>2257.31</ele>
        <time>2019-06-08T10:03:38Z</time>
      </trkpt>
      <trkpt lat="42.65882" lon="1.72126">
        <ele>2257.31</ele>
        <time>2019-06-08T10:04:21Z</time>
      </trkpt>
      <trkpt lat="42.65871" lon="1.72115">
        <ele>2260.68</ele>
        <time>2019-06-08T10:04:46Z</time>
      </trkpt>
      <trkpt lat="42.65867" lon="1.7211">
        <ele>2264.04</ele>
        <time>2019-06-08T10:05:14Z</time>
      </trkpt>
      <trkpt lat="42.65864" lon="1.72098">
        <ele>2267.41</ele>
        <time>2019-06-08T10:05:35Z</time>
      </trkpt>
      <trkpt lat="42.65861" lon="1.72093">
        <ele>2271.73</ele>
        <time>2019-06-08T10:06:07Z</time>
      </trkpt>
      <trkpt lat="42.65856" lon="1.7208">
        <ele>2276.06</ele>
        <time>2019-06-08T10:06:33Z</time>
      </trkpt>
      <trkpt lat="42.65855" lon="1.7208">
        <ele>2275.58</ele>
        <time>2019-06-08T10:06:46Z</time>
      </trkpt>
      <trkpt lat="42.65846" lon="1.72076">
        <ele>2278.94</ele>
        <time>2019-06-08T10:07:14Z</time>
      </trkpt>
      <trkpt lat="42.65835" lon="1.72068">
        <ele>2284.23</ele>
        <time>2019-06-08T10:07:53Z</time>
      </trkpt>
      <trkpt lat="42.65832" lon="1.72067">
        <ele>2286.15</ele>
        <time>2019-06-08T10:08:11Z</time>
      </trkpt>
      <trkpt lat="42.65828" lon="1.72056">
        <ele>2288.56</ele>
        <time>2019-06-08T10:08:56Z</time>
      </trkpt>
      <trkpt lat="42.65824" lon="1.72059">
        <ele>2289.04</ele>
        <time>2019-06-08T10:09:43Z</time>
      </trkpt>
      <trkpt lat="42.65821" lon="1.72057">
        <ele>2293.36</ele>
        <time>2019-06-08T10:11:00Z</time>
      </trkpt>
      <trkpt lat="42.65814" lon="1.72055">
        <ele>2296.73</ele>
        <time>2019-06-08T10:11:21Z</time>
      </trkpt>
      <trkpt lat="42.65799" lon="1.7205">
        <ele>2300.57</ele>
        <time>2019-06-08T10:12:15Z</time>
      </trkpt>
      <trkpt lat="42.65781" lon="1.72038">
        <ele>2303.46</ele>
        <time>2019-06-08T10:13:19Z</time>
      </trkpt>
      <trkpt lat="42.65775" lon="1.72037">
        <ele>2307.3</ele>
        <time>2019-06-08T10:13:58Z</time>
      </trkpt>
      <trkpt lat="42.6577" lon="1.72032">
        <ele>2308.74</ele>
        <time>2019-06-08T10:14:36Z</time>
      </trkpt>
      <trkpt lat="42.65772" lon="1.72028">
        <ele>2308.74</ele>
        <time>2019-06-08T10:16:24Z</time>
      </trkpt>
      <trkpt lat="42.65769" lon="1.72029">
        <ele>2310.67</ele>
        <time>2019-06-08T10:17:00Z</time>
      </trkpt>
      <trkpt lat="42.65766" lon="1.72031">
        <ele>2314.03</ele>
        <time>2019-06-08T10:17:30Z</time>
      </trkpt>
      <trkpt lat="42.65766" lon="1.72031">
        <ele>2312.59</ele>
        <time>2019-06-08T10:17:33Z</time>
      </trkpt>
      <trkpt lat="42.65761" lon="1.7204">
        <ele>2316.43</ele>
        <time>2019-06-08T10:18:12Z</time>
      </trkpt>
      <trkpt lat="42.65759" lon="1.72046">
        <ele>2319.8</ele>
        <time>2019-06-08T10:18:34Z</time>
      </trkpt>
      <trkpt lat="42.65759" lon="1.72035">
        <ele>2321.24</ele>
        <time>2019-06-08T10:19:48Z</time>
      </trkpt>
      <trkpt lat="42.65783" lon="1.72011">
        <ele>2325.09</ele>
        <time>2019-06-08T10:20:27Z</time>
      </trkpt>
      <trkpt lat="42.65784" lon="1.72009">
        <ele>2323.64</ele>
        <time>2019-06-08T10:20:30Z</time>
      </trkpt>
      <trkpt lat="42.6579" lon="1.72016">
        <ele>2326.05</ele>
        <time>2019-06-08T10:21:02Z</time>
      </trkpt>
      <trkpt lat="42.6579" lon="1.72014">
        <ele>2327.01</ele>
        <time>2019-06-08T10:22:47Z</time>
      </trkpt>
      <trkpt lat="42.65779" lon="1.72009">
        <ele>2323.16</ele>
        <time>2019-06-08T10:24:14Z</time>
      </trkpt>
      <trkpt lat="42.65778" lon="1.7201">
        <ele>2324.61</ele>
        <time>2019-06-08T10:24:17Z</time>
      </trkpt>
      <trkpt lat="42.65763" lon="1.72025">
        <ele>2324.12</ele>
        <time>2019-06-08T10:25:12Z</time>
      </trkpt>
      <trkpt lat="42.65752" lon="1.7204">
        <ele>2321.72</ele>
        <time>2019-06-08T10:25:36Z</time>
      </trkpt>
      <trkpt lat="42.65762" lon="1.72047">
        <ele>2322.2</ele>
        <time>2019-06-08T10:26:22Z</time>
      </trkpt>
      <trkpt lat="42.65739" lon="1.72033">
        <ele>2319.32</ele>
        <time>2019-06-08T10:27:17Z</time>
      </trkpt>
      <trkpt lat="42.65731" lon="1.72031">
        <ele>2319.8</ele>
        <time>2019-06-08T10:27:29Z</time>
      </trkpt>
      <trkpt lat="42.65724" lon="1.72029">
        <ele>2314.03</ele>
        <time>2019-06-08T10:27:54Z</time>
      </trkpt>
      <trkpt lat="42.65724" lon="1.72029">
        <ele>2314.51</ele>
        <time>2019-06-08T10:27:57Z</time>
      </trkpt>
      <trkpt lat="42.65711" lon="1.72041">
        <ele>2310.67</ele>
        <time>2019-06-08T10:28:19Z</time>
      </trkpt>
      <trkpt lat="42.65707" lon="1.72044">
        <ele>2310.67</ele>
        <time>2019-06-08T10:28:30Z</time>
      </trkpt>
      <trkpt lat="42.65702" lon="1.72045">
        <ele>2306.82</ele>
        <time>2019-06-08T10:28:38Z</time>
      </trkpt>
      <trkpt lat="42.65684" lon="1.72043">
        <ele>2303.46</ele>
        <time>2019-06-08T10:29:02Z</time>
      </trkpt>
      <trkpt lat="42.65676" lon="1.72049">
        <ele>2299.13</ele>
        <time>2019-06-08T10:29:25Z</time>
      </trkpt>
      <trkpt lat="42.65654" lon="1.72059">
        <ele>2294.8</ele>
        <time>2019-06-08T10:29:53Z</time>
      </trkpt>
      <trkpt lat="42.65649" lon="1.72064">
        <ele>2295.28</ele>
        <time>2019-06-08T10:30:06Z</time>
      </trkpt>
      <trkpt lat="42.65633" lon="1.72076">
        <ele>2294.32</ele>
        <time>2019-06-08T10:30:39Z</time>
      </trkpt>
      <trkpt lat="42.65602" lon="1.72096">
        <ele>2291.92</ele>
        <time>2019-06-08T10:31:18Z</time>
      </trkpt>
      <trkpt lat="42.656" lon="1.72102">
        <ele>2291.44</ele>
        <time>2019-06-08T10:32:06Z</time>
      </trkpt>
      <trkpt lat="42.65575" lon="1.72111">
        <ele>2290</ele>
        <time>2019-06-08T10:32:33Z</time>
      </trkpt>
      <trkpt lat="42.65553" lon="1.72126">
        <ele>2288.56</ele>
        <time>2019-06-08T10:32:58Z</time>
      </trkpt>
      <trkpt lat="42.65534" lon="1.72122">
        <ele>2285.19</ele>
        <time>2019-06-08T10:33:33Z</time>
      </trkpt>
      <trkpt lat="42.65529" lon="1.72116">
        <ele>2282.79</ele>
        <time>2019-06-08T10:33:58Z</time>
      </trkpt>
      <trkpt lat="42.65535" lon="1.72115">
        <ele>2281.35</ele>
        <time>2019-06-08T10:35:33Z</time>
      </trkpt>
      <trkpt lat="42.65535" lon="1.72114">
        <ele>2277.98</ele>
        <time>2019-06-08T10:36:04Z</time>
      </trkpt>
      <trkpt lat="42.65535" lon="1.72114">
        <ele>2281.35</ele>
        <time>2019-06-08T10:36:05Z</time>
      </trkpt>
      <trkpt lat="42.65535" lon="1.72114">
        <ele>2284.71</ele>
        <time>2019-06-08T10:37:54Z</time>
      </trkpt>
      <trkpt lat="42.65535" lon="1.72114">
        <ele>2281.35</ele>
        <time>2019-06-08T10:38:59Z</time>
      </trkpt>
      <trkpt lat="42.65535" lon="1.72114">
        <ele>2285.67</ele>
        <time>2019-06-08T10:39:48Z</time>
      </trkpt>
      <trkpt lat="42.65535" lon="1.72114">
        <ele>2281.83</ele>
        <time>2019-06-08T10:42:02Z</time>
      </trkpt>
      <trkpt lat="42.65535" lon="1.72114">
        <ele>2285.19</ele>
        <time>2019-06-08T10:43:03Z</time>
      </trkpt>
      <trkpt lat="42.65535" lon="1.72114">
        <ele>2285.19</ele>
        <time>2019-06-08T10:43:09Z</time>
      </trkpt>
      <trkpt lat="42.65536" lon="1.72113">
        <ele>2281.83</ele>
        <time>2019-06-08T10:49:45Z</time>
      </trkpt>
      <trkpt lat="42.65537" lon="1.72114">
        <ele>2286.15</ele>
        <time>2019-06-08T10:51:43Z</time>
      </trkpt>
      <trkpt lat="42.65537" lon="1.72113">
        <ele>2282.79</ele>
        <time>2019-06-08T10:54:09Z</time>
      </trkpt>
      <trkpt lat="42.65537" lon="1.72113">
        <ele>2286.15</ele>
        <time>2019-06-08T10:54:26Z</time>
      </trkpt>
      <trkpt lat="42.65538" lon="1.72113">
        <ele>2282.79</ele>
        <time>2019-06-08T10:58:33Z</time>
      </trkpt>
      <trkpt lat="42.65538" lon="1.72113">
        <ele>2278.94</ele>
        <time>2019-06-08T11:01:17Z</time>
      </trkpt>
      <trkpt lat="42.65538" lon="1.72113">
        <ele>2282.79</ele>
        <time>2019-06-08T11:01:33Z</time>
      </trkpt>
      <trkpt lat="42.65538" lon="1.72113">
        <ele>2286.15</ele>
        <time>2019-06-08T11:04:22Z</time>
      </trkpt>
      <trkpt lat="42.65538" lon="1.72113">
        <ele>2282.79</ele>
        <time>2019-06-08T11:04:24Z</time>
      </trkpt>
      <trkpt lat="42.65538" lon="1.72113">
        <ele>2287.59</ele>
        <time>2019-06-08T11:05:05Z</time>
      </trkpt>
      <trkpt lat="42.65538" lon="1.72113">
        <ele>2286.15</ele>
        <time>2019-06-08T11:05:11Z</time>
      </trkpt>
      <trkpt lat="42.65539" lon="1.72113">
        <ele>2283.27</ele>
        <time>2019-06-08T11:06:21Z</time>
      </trkpt>
      <trkpt lat="42.65538" lon="1.72113">
        <ele>2279.9</ele>
        <time>2019-06-08T11:09:22Z</time>
      </trkpt>
      <trkpt lat="42.65538" lon="1.72113">
        <ele>2283.75</ele>
        <time>2019-06-08T11:12:06Z</time>
      </trkpt>
      <trkpt lat="42.65536" lon="1.72112">
        <ele>2281.83</ele>
        <time>2019-06-08T11:23:39Z</time>
      </trkpt>
      <trkpt lat="42.65536" lon="1.72112">
        <ele>2283.75</ele>
        <time>2019-06-08T11:33:13Z</time>
      </trkpt>
      <trkpt lat="42.65536" lon="1.72114">
        <ele>2283.75</ele>
        <time>2019-06-08T11:38:34Z</time>
      </trkpt>
      <trkpt lat="42.65535" lon="1.72113">
        <ele>2286.63</ele>
        <time>2019-06-08T11:43:42Z</time>
      </trkpt>
      <trkpt lat="42.65534" lon="1.72113">
        <ele>2283.27</ele>
        <time>2019-06-08T11:43:50Z</time>
      </trkpt>
      <trkpt lat="42.65532" lon="1.72117">
        <ele>2289.04</ele>
        <time>2019-06-08T11:44:00Z</time>
      </trkpt>
      <trkpt lat="42.65519" lon="1.72127">
        <ele>2289.52</ele>
        <time>2019-06-08T11:44:26Z</time>
      </trkpt>
      <trkpt lat="42.65488" lon="1.7214">
        <ele>2287.59</ele>
        <time>2019-06-08T11:45:02Z</time>
      </trkpt>
      <trkpt lat="42.65487" lon="1.72139">
        <ele>2294.8</ele>
        <time>2019-06-08T11:45:13Z</time>
      </trkpt>
      <trkpt lat="42.65486" lon="1.72139">
        <ele>2288.56</ele>
        <time>2019-06-08T11:45:14Z</time>
      </trkpt>
      <trkpt lat="42.65486" lon="1.72139">
        <ele>2284.23</ele>
        <time>2019-06-08T11:45:15Z</time>
      </trkpt>
      <trkpt lat="42.65486" lon="1.72139">
        <ele>2286.63</ele>
        <time>2019-06-08T11:45:16Z</time>
      </trkpt>
      <trkpt lat="42.65465" lon="1.72143">
        <ele>2285.67</ele>
        <time>2019-06-08T11:45:53Z</time>
      </trkpt>
      <trkpt lat="42.65436" lon="1.72152">
        <ele>2281.35</ele>
        <time>2019-06-08T11:46:27Z</time>
      </trkpt>
      <trkpt lat="42.65425" lon="1.72157">
        <ele>2283.75</ele>
        <time>2019-06-08T11:46:37Z</time>
      </trkpt>
      <trkpt lat="42.65418" lon="1.72164">
        <ele>2280.38</ele>
        <time>2019-06-08T11:46:44Z</time>
      </trkpt>
      <trkpt lat="42.65405" lon="1.72166">
        <ele>2284.71</ele>
        <time>2019-06-08T11:46:55Z</time>
      </trkpt>
      <trkpt lat="42.65385" lon="1.72164">
        <ele>2288.56</ele>
        <time>2019-06-08T11:47:15Z</time>
      </trkpt>
      <trkpt lat="42.65384" lon="1.72163">
        <ele>2288.56</ele>
        <time>2019-06-08T11:47:16Z</time>
      </trkpt>
      <trkpt lat="42.65379" lon="1.72159">
        <ele>2285.19</ele>
        <time>2019-06-08T11:47:22Z</time>
      </trkpt>
      <trkpt lat="42.65379" lon="1.72158">
        <ele>2285.67</ele>
        <time>2019-06-08T11:47:23Z</time>
      </trkpt>
      <trkpt lat="42.65378" lon="1.72158">
        <ele>2289.04</ele>
        <time>2019-06-08T11:47:43Z</time>
      </trkpt>
      <trkpt lat="42.65378" lon="1.72158">
        <ele>2288.56</ele>
        <time>2019-06-08T11:47:44Z</time>
      </trkpt>
      <trkpt lat="42.65378" lon="1.72158">
        <ele>2285.19</ele>
        <time>2019-06-08T11:48:01Z</time>
      </trkpt>
      <trkpt lat="42.65378" lon="1.72158">
        <ele>2288.56</ele>
        <time>2019-06-08T11:48:05Z</time>
      </trkpt>
      <trkpt lat="42.65379" lon="1.72157">
        <ele>2293.36</ele>
        <time>2019-06-08T11:48:07Z</time>
      </trkpt>
      <trkpt lat="42.6538" lon="1.72156">
        <ele>2290</ele>
        <time>2019-06-08T11:48:08Z</time>
      </trkpt>
      <trkpt lat="42.6538" lon="1.72152">
        <ele>2284.71</ele>
        <time>2019-06-08T11:48:22Z</time>
      </trkpt>
      <trkpt lat="42.65375" lon="1.72145">
        <ele>2284.71</ele>
        <time>2019-06-08T11:48:31Z</time>
      </trkpt>
      <trkpt lat="42.65343" lon="1.72122">
        <ele>2287.59</ele>
        <time>2019-06-08T11:49:17Z</time>
      </trkpt>
      <trkpt lat="42.65321" lon="1.72094">
        <ele>2289.52</ele>
        <time>2019-06-08T11:49:50Z</time>
      </trkpt>
      <trkpt lat="42.65316" lon="1.7209">
        <ele>2293.36</ele>
        <time>2019-06-08T11:49:57Z</time>
      </trkpt>
      <trkpt lat="42.65288" lon="1.72064">
        <ele>2293.36</ele>
        <time>2019-06-08T11:50:44Z</time>
      </trkpt>
      <trkpt lat="42.65259" lon="1.72025">
        <ele>2296.25</ele>
        <time>2019-06-08T11:51:32Z</time>
      </trkpt>
      <trkpt lat="42.65241" lon="1.71999">
        <ele>2299.61</ele>
        <time>2019-06-08T11:52:08Z</time>
      </trkpt>
      <trkpt lat="42.65229" lon="1.71976">
        <ele>2304.42</ele>
        <time>2019-06-08T11:52:38Z</time>
      </trkpt>
      <trkpt lat="42.6521" lon="1.71952">
        <ele>2309.7</ele>
        <time>2019-06-08T11:53:21Z</time>
      </trkpt>
      <trkpt lat="42.6521" lon="1.71952">
        <ele>2309.22</ele>
        <time>2019-06-08T11:53:22Z</time>
      </trkpt>
      <trkpt lat="42.65206" lon="1.71947">
        <ele>2312.59</ele>
        <time>2019-06-08T11:53:32Z</time>
      </trkpt>
      <trkpt lat="42.65205" lon="1.71943">
        <ele>2315.95</ele>
        <time>2019-06-08T11:53:36Z</time>
      </trkpt>
      <trkpt lat="42.65204" lon="1.71941">
        <ele>2315.47</ele>
        <time>2019-06-08T11:53:38Z</time>
      </trkpt>
      <trkpt lat="42.652" lon="1.71939">
        <ele>2313.55</ele>
        <time>2019-06-08T11:53:44Z</time>
      </trkpt>
      <trkpt lat="42.65183" lon="1.71909">
        <ele>2315.95</ele>
        <time>2019-06-08T11:54:29Z</time>
      </trkpt>
      <trkpt lat="42.65177" lon="1.71898">
        <ele>2319.32</ele>
        <time>2019-06-08T11:54:43Z</time>
      </trkpt>
      <trkpt lat="42.65177" lon="1.71897">
        <ele>2317.4</ele>
        <time>2019-06-08T11:54:46Z</time>
      </trkpt>
      <trkpt lat="42.65175" lon="1.71891">
        <ele>2321.24</ele>
        <time>2019-06-08T11:54:56Z</time>
      </trkpt>
      <trkpt lat="42.65161" lon="1.7186">
        <ele>2322.2</ele>
        <time>2019-06-08T11:55:40Z</time>
      </trkpt>
      <trkpt lat="42.65152" lon="1.71854">
        <ele>2325.57</ele>
        <time>2019-06-08T11:56:11Z</time>
      </trkpt>
      <trkpt lat="42.65142" lon="1.71851">
        <ele>2328.93</ele>
        <time>2019-06-08T11:57:51Z</time>
      </trkpt>
      <trkpt lat="42.6514" lon="1.71851">
        <ele>2328.93</ele>
        <time>2019-06-08T11:57:57Z</time>
      </trkpt>
      <trkpt lat="42.65139" lon="1.71851">
        <ele>2332.3</ele>
        <time>2019-06-08T11:58:03Z</time>
      </trkpt>
      <trkpt lat="42.65129" lon="1.71854">
        <ele>2335.66</ele>
        <time>2019-06-08T11:58:37Z</time>
      </trkpt>
      <trkpt lat="42.65127" lon="1.71855">
        <ele>2339.51</ele>
        <time>2019-06-08T11:58:53Z</time>
      </trkpt>
      <trkpt lat="42.65113" lon="1.71876">
        <ele>2342.39</ele>
        <time>2019-06-08T12:00:10Z</time>
      </trkpt>
      <trkpt lat="42.6511" lon="1.7187">
        <ele>2343.83</ele>
        <time>2019-06-08T12:00:37Z</time>
      </trkpt>
      <trkpt lat="42.65109" lon="1.71869">
        <ele>2347.2</ele>
        <time>2019-06-08T12:00:46Z</time>
      </trkpt>
      <trkpt lat="42.65103" lon="1.71871">
        <ele>2352.48</ele>
        <time>2019-06-08T12:01:17Z</time>
      </trkpt>
      <trkpt lat="42.65103" lon="1.71871">
        <ele>2351.52</ele>
        <time>2019-06-08T12:01:18Z</time>
      </trkpt>
      <trkpt lat="42.65099" lon="1.71869">
        <ele>2355.37</ele>
        <time>2019-06-08T12:01:33Z</time>
      </trkpt>
      <trkpt lat="42.65094" lon="1.7187">
        <ele>2355.37</ele>
        <time>2019-06-08T12:01:47Z</time>
      </trkpt>
      <trkpt lat="42.65091" lon="1.7187">
        <ele>2358.73</ele>
        <time>2019-06-08T12:02:03Z</time>
      </trkpt>
      <trkpt lat="42.65085" lon="1.71869">
        <ele>2361.62</ele>
        <time>2019-06-08T12:02:32Z</time>
      </trkpt>
      <trkpt lat="42.65079" lon="1.7186">
        <ele>2365.94</ele>
        <time>2019-06-08T12:03:08Z</time>
      </trkpt>
      <trkpt lat="42.65078" lon="1.71863">
        <ele>2365.46</ele>
        <time>2019-06-08T12:03:18Z</time>
      </trkpt>
      <trkpt lat="42.65078" lon="1.71866">
        <ele>2361.62</ele>
        <time>2019-06-08T12:03:27Z</time>
      </trkpt>
      <trkpt lat="42.65078" lon="1.71866">
        <ele>2362.1</ele>
        <time>2019-06-08T12:03:28Z</time>
      </trkpt>
      <trkpt lat="42.65078" lon="1.71866">
        <ele>2366.9</ele>
        <time>2019-06-08T12:03:52Z</time>
      </trkpt>
      <trkpt lat="42.65078" lon="1.71866">
        <ele>2365.46</ele>
        <time>2019-06-08T12:03:53Z</time>
      </trkpt>
      <trkpt lat="42.65078" lon="1.71866">
        <ele>2359.21</ele>
        <time>2019-06-08T12:04:02Z</time>
      </trkpt>
      <trkpt lat="42.65078" lon="1.71866">
        <ele>2365.46</ele>
        <time>2019-06-08T12:04:13Z</time>
      </trkpt>
      <trkpt lat="42.65078" lon="1.71866">
        <ele>2363.54</ele>
        <time>2019-06-08T12:04:14Z</time>
      </trkpt>
      <trkpt lat="42.65078" lon="1.71866">
        <ele>2359.69</ele>
        <time>2019-06-08T12:04:16Z</time>
      </trkpt>
      <trkpt lat="42.65078" lon="1.71866">
        <ele>2364.98</ele>
        <time>2019-06-08T12:04:26Z</time>
      </trkpt>
      <trkpt lat="42.65078" lon="1.71866">
        <ele>2359.69</ele>
        <time>2019-06-08T12:04:35Z</time>
      </trkpt>
      <trkpt lat="42.65078" lon="1.71865">
        <ele>2364.98</ele>
        <time>2019-06-08T12:04:41Z</time>
      </trkpt>
      <trkpt lat="42.65078" lon="1.71865">
        <ele>2361.14</ele>
        <time>2019-06-08T12:04:45Z</time>
      </trkpt>
      <trkpt lat="42.65078" lon="1.71865">
        <ele>2364.5</ele>
        <time>2019-06-08T12:04:52Z</time>
      </trkpt>
      <trkpt lat="42.65078" lon="1.71865">
        <ele>2369.31</ele>
        <time>2019-06-08T12:05:06Z</time>
      </trkpt>
      <trkpt lat="42.65078" lon="1.71865">
        <ele>2365.46</ele>
        <time>2019-06-08T12:05:09Z</time>
      </trkpt>
      <trkpt lat="42.65078" lon="1.71865">
        <ele>2361.62</ele>
        <time>2019-06-08T12:05:11Z</time>
      </trkpt>
      <trkpt lat="42.65078" lon="1.71865">
        <ele>2362.58</ele>
        <time>2019-06-08T12:05:12Z</time>
      </trkpt>
      <trkpt lat="42.6508" lon="1.71863">
        <ele>2363.54</ele>
        <time>2019-06-08T12:05:31Z</time>
      </trkpt>
      <trkpt lat="42.65078" lon="1.71844">
        <ele>2361.14</ele>
        <time>2019-06-08T12:05:54Z</time>
      </trkpt>
      <trkpt lat="42.65078" lon="1.71842">
        <ele>2364.98</ele>
        <time>2019-06-08T12:05:56Z</time>
      </trkpt>
      <trkpt lat="42.65076" lon="1.71832">
        <ele>2365.94</ele>
        <time>2019-06-08T12:06:14Z</time>
      </trkpt>
      <trkpt lat="42.65066" lon="1.71819">
        <ele>2369.31</ele>
        <time>2019-06-08T12:06:44Z</time>
      </trkpt>
      <trkpt lat="42.65064" lon="1.71812">
        <ele>2369.31</ele>
        <time>2019-06-08T12:06:57Z</time>
      </trkpt>
      <trkpt lat="42.65064" lon="1.71812">
        <ele>2371.23</ele>
        <time>2019-06-08T12:08:01Z</time>
      </trkpt>
      <trkpt lat="42.65064" lon="1.71812">
        <ele>2367.38</ele>
        <time>2019-06-08T12:08:21Z</time>
      </trkpt>
      <trkpt lat="42.65064" lon="1.71812">
        <ele>2368.35</ele>
        <time>2019-06-08T12:08:22Z</time>
      </trkpt>
      <trkpt lat="42.6506" lon="1.71798">
        <ele>2370.27</ele>
        <time>2019-06-08T12:09:48Z</time>
      </trkpt>
      <trkpt lat="42.6506" lon="1.71794">
        <ele>2366.9</ele>
        <time>2019-06-08T12:09:54Z</time>
      </trkpt>
      <trkpt lat="42.6506" lon="1.71794">
        <ele>2367.86</ele>
        <time>2019-06-08T12:09:55Z</time>
      </trkpt>
      <trkpt lat="42.6506" lon="1.71782">
        <ele>2363.06</ele>
        <time>2019-06-08T12:10:17Z</time>
      </trkpt>
      <trkpt lat="42.6506" lon="1.71777">
        <ele>2359.69</ele>
        <time>2019-06-08T12:10:28Z</time>
      </trkpt>
      <trkpt lat="42.6506" lon="1.71777">
        <ele>2360.17</ele>
        <time>2019-06-08T12:10:29Z</time>
      </trkpt>
      <trkpt lat="42.65063" lon="1.71767">
        <ele>2356.81</ele>
        <time>2019-06-08T12:10:56Z</time>
      </trkpt>
      <trkpt lat="42.65061" lon="1.71764">
        <ele>2355.85</ele>
        <time>2019-06-08T12:11:14Z</time>
      </trkpt>
      <trkpt lat="42.65065" lon="1.71763">
        <ele>2352</ele>
        <time>2019-06-08T12:12:07Z</time>
      </trkpt>
      <trkpt lat="42.65065" lon="1.71763">
        <ele>2355.85</ele>
        <time>2019-06-08T12:12:08Z</time>
      </trkpt>
      <trkpt lat="42.65064" lon="1.71756">
        <ele>2354.89</ele>
        <time>2019-06-08T12:12:55Z</time>
      </trkpt>
      <trkpt lat="42.65063" lon="1.71744">
        <ele>2349.6</ele>
        <time>2019-06-08T12:13:28Z</time>
      </trkpt>
      <trkpt lat="42.65062" lon="1.71738">
        <ele>2346.23</ele>
        <time>2019-06-08T12:13:42Z</time>
      </trkpt>
      <trkpt lat="42.65063" lon="1.71722">
        <ele>2342.39</ele>
        <time>2019-06-08T12:14:05Z</time>
      </trkpt>
      <trkpt lat="42.65064" lon="1.71712">
        <ele>2339.99</ele>
        <time>2019-06-08T12:14:18Z</time>
      </trkpt>
      <trkpt lat="42.65064" lon="1.71705">
        <ele>2336.62</ele>
        <time>2019-06-08T12:14:38Z</time>
      </trkpt>
      <trkpt lat="42.65064" lon="1.71704">
        <ele>2335.18</ele>
        <time>2019-06-08T12:14:45Z</time>
      </trkpt>
      <trkpt lat="42.65066" lon="1.71702">
        <ele>2333.26</ele>
        <time>2019-06-08T12:15:05Z</time>
      </trkpt>
      <trkpt lat="42.65067" lon="1.71692">
        <ele>2328.45</ele>
        <time>2019-06-08T12:15:21Z</time>
      </trkpt>
      <trkpt lat="42.65065" lon="1.71687">
        <ele>2327.01</ele>
        <time>2019-06-08T12:15:27Z</time>
      </trkpt>
      <trkpt lat="42.65062" lon="1.71656">
        <ele>2325.57</ele>
        <time>2019-06-08T12:15:54Z</time>
      </trkpt>
      <trkpt lat="42.65055" lon="1.71638">
        <ele>2320.76</ele>
        <time>2019-06-08T12:16:15Z</time>
      </trkpt>
      <trkpt lat="42.65054" lon="1.71627">
        <ele>2319.8</ele>
        <time>2019-06-08T12:16:27Z</time>
      </trkpt>
      <trkpt lat="42.65051" lon="1.71587">
        <ele>2319.32</ele>
        <time>2019-06-08T12:16:58Z</time>
      </trkpt>
      <trkpt lat="42.65047" lon="1.71563">
        <ele>2320.76</ele>
        <time>2019-06-08T12:17:23Z</time>
      </trkpt>
      <trkpt lat="42.65046" lon="1.71559">
        <ele>2316.43</ele>
        <time>2019-06-08T12:17:27Z</time>
      </trkpt>
      <trkpt lat="42.65043" lon="1.71551">
        <ele>2316.43</ele>
        <time>2019-06-08T12:17:34Z</time>
      </trkpt>
      <trkpt lat="42.65031" lon="1.71532">
        <ele>2313.07</ele>
        <time>2019-06-08T12:17:55Z</time>
      </trkpt>
      <trkpt lat="42.65014" lon="1.71508">
        <ele>2311.15</ele>
        <time>2019-06-08T12:18:24Z</time>
      </trkpt>
      <trkpt lat="42.65006" lon="1.715">
        <ele>2310.67</ele>
        <time>2019-06-08T12:18:49Z</time>
      </trkpt>
      <trkpt lat="42.65004" lon="1.71503">
        <ele>2307.3</ele>
        <time>2019-06-08T12:19:02Z</time>
      </trkpt>
      <trkpt lat="42.65004" lon="1.71503">
        <ele>2307.3</ele>
        <time>2019-06-08T12:19:08Z</time>
      </trkpt>
      <trkpt lat="42.64999" lon="1.71505">
        <ele>2305.38</ele>
        <time>2019-06-08T12:19:39Z</time>
      </trkpt>
      <trkpt lat="42.64997" lon="1.71508">
        <ele>2300.57</ele>
        <time>2019-06-08T12:20:26Z</time>
      </trkpt>
      <trkpt lat="42.64997" lon="1.71508">
        <ele>2304.42</ele>
        <time>2019-06-08T12:20:27Z</time>
      </trkpt>
      <trkpt lat="42.64998" lon="1.71513">
        <ele>2300.09</ele>
        <time>2019-06-08T12:20:39Z</time>
      </trkpt>
      <trkpt lat="42.65005" lon="1.71526">
        <ele>2299.13</ele>
        <time>2019-06-08T12:21:05Z</time>
      </trkpt>
      <trkpt lat="42.65012" lon="1.71551">
        <ele>2295.28</ele>
        <time>2019-06-08T12:21:33Z</time>
      </trkpt>
      <trkpt lat="42.65015" lon="1.71564">
        <ele>2293.84</ele>
        <time>2019-06-08T12:21:50Z</time>
      </trkpt>
      <trkpt lat="42.65015" lon="1.71568">
        <ele>2291.92</ele>
        <time>2019-06-08T12:21:53Z</time>
      </trkpt>
      <trkpt lat="42.65018" lon="1.71597">
        <ele>2288.56</ele>
        <time>2019-06-08T12:22:19Z</time>
      </trkpt>
      <trkpt lat="42.65023" lon="1.71608">
        <ele>2288.56</ele>
        <time>2019-06-08T12:22:31Z</time>
      </trkpt>
      <trkpt lat="42.65024" lon="1.71642">
        <ele>2289.52</ele>
        <time>2019-06-08T12:23:05Z</time>
      </trkpt>
      <trkpt lat="42.65021" lon="1.71653">
        <ele>2284.23</ele>
        <time>2019-06-08T12:23:21Z</time>
      </trkpt>
      <trkpt lat="42.65021" lon="1.71653">
        <ele>2285.67</ele>
        <time>2019-06-08T12:23:22Z</time>
      </trkpt>
      <trkpt lat="42.65021" lon="1.71653">
        <ele>2289.52</ele>
        <time>2019-06-08T12:23:31Z</time>
      </trkpt>
      <trkpt lat="42.65021" lon="1.71655">
        <ele>2286.15</ele>
        <time>2019-06-08T12:23:32Z</time>
      </trkpt>
      <trkpt lat="42.65021" lon="1.71665">
        <ele>2281.35</ele>
        <time>2019-06-08T12:23:40Z</time>
      </trkpt>
      <trkpt lat="42.65021" lon="1.71666">
        <ele>2281.35</ele>
        <time>2019-06-08T12:23:41Z</time>
      </trkpt>
      <trkpt lat="42.65018" lon="1.71699">
        <ele>2276.06</ele>
        <time>2019-06-08T12:24:16Z</time>
      </trkpt>
      <trkpt lat="42.65018" lon="1.71699">
        <ele>2278.94</ele>
        <time>2019-06-08T12:24:20Z</time>
      </trkpt>
      <trkpt lat="42.65008" lon="1.71717">
        <ele>2280.38</ele>
        <time>2019-06-08T12:24:36Z</time>
      </trkpt>
      <trkpt lat="42.64992" lon="1.71753">
        <ele>2282.31</ele>
        <time>2019-06-08T12:25:15Z</time>
      </trkpt>
      <trkpt lat="42.64992" lon="1.71753">
        <ele>2281.83</ele>
        <time>2019-06-08T12:25:16Z</time>
      </trkpt>
      <trkpt lat="42.64984" lon="1.71769">
        <ele>2281.35</ele>
        <time>2019-06-08T12:25:36Z</time>
      </trkpt>
      <trkpt lat="42.64967" lon="1.71807">
        <ele>2281.35</ele>
        <time>2019-06-08T12:26:29Z</time>
      </trkpt>
      <trkpt lat="42.64967" lon="1.71809">
        <ele>2277.98</ele>
        <time>2019-06-08T12:26:32Z</time>
      </trkpt>
      <trkpt lat="42.64964" lon="1.71812">
        <ele>2281.35</ele>
        <time>2019-06-08T12:26:36Z</time>
      </trkpt>
      <trkpt lat="42.6495" lon="1.71825">
        <ele>2279.9</ele>
        <time>2019-06-08T12:27:01Z</time>
      </trkpt>
      <trkpt lat="42.64944" lon="1.71831">
        <ele>2276.54</ele>
        <time>2019-06-08T12:27:11Z</time>
      </trkpt>
      <trkpt lat="42.64944" lon="1.71832">
        <ele>2277.02</ele>
        <time>2019-06-08T12:27:12Z</time>
      </trkpt>
      <trkpt lat="42.64924" lon="1.71841">
        <ele>2275.1</ele>
        <time>2019-06-08T12:27:43Z</time>
      </trkpt>
      <trkpt lat="42.64919" lon="1.71845">
        <ele>2279.9</ele>
        <time>2019-06-08T12:27:50Z</time>
      </trkpt>
      <trkpt lat="42.64916" lon="1.71847">
        <ele>2278.46</ele>
        <time>2019-06-08T12:27:53Z</time>
      </trkpt>
      <trkpt lat="42.64901" lon="1.71881">
        <ele>2280.87</ele>
        <time>2019-06-08T12:28:35Z</time>
      </trkpt>
      <trkpt lat="42.64903" lon="1.71885">
        <ele>2282.31</ele>
        <time>2019-06-08T12:28:39Z</time>
      </trkpt>
      <trkpt lat="42.64909" lon="1.71892">
        <ele>2287.59</ele>
        <time>2019-06-08T12:28:47Z</time>
      </trkpt>
      <trkpt lat="42.64912" lon="1.719">
        <ele>2288.56</ele>
        <time>2019-06-08T12:28:58Z</time>
      </trkpt>
      <trkpt lat="42.64911" lon="1.71903">
        <ele>2292.4</ele>
        <time>2019-06-08T12:29:11Z</time>
      </trkpt>
      <trkpt lat="42.64907" lon="1.71911">
        <ele>2287.59</ele>
        <time>2019-06-08T12:29:19Z</time>
      </trkpt>
      <trkpt lat="42.64906" lon="1.71916">
        <ele>2289.04</ele>
        <time>2019-06-08T12:29:30Z</time>
      </trkpt>
      <trkpt lat="42.64902" lon="1.71927">
        <ele>2282.79</ele>
        <time>2019-06-08T12:29:42Z</time>
      </trkpt>
      <trkpt lat="42.64902" lon="1.71927">
        <ele>2286.15</ele>
        <time>2019-06-08T12:29:47Z</time>
      </trkpt>
      <trkpt lat="42.64902" lon="1.71927">
        <ele>2282.31</ele>
        <time>2019-06-08T12:30:22Z</time>
      </trkpt>
      <trkpt lat="42.64902" lon="1.71927">
        <ele>2286.15</ele>
        <time>2019-06-08T12:30:24Z</time>
      </trkpt>
      <trkpt lat="42.64901" lon="1.71929">
        <ele>2281.83</ele>
        <time>2019-06-08T12:30:46Z</time>
      </trkpt>
      <trkpt lat="42.64896" lon="1.71945">
        <ele>2285.67</ele>
        <time>2019-06-08T12:31:09Z</time>
      </trkpt>
      <trkpt lat="42.64895" lon="1.71946">
        <ele>2280.38</ele>
        <time>2019-06-08T12:31:10Z</time>
      </trkpt>
      <trkpt lat="42.64895" lon="1.71947">
        <ele>2283.75</ele>
        <time>2019-06-08T12:31:12Z</time>
      </trkpt>
      <trkpt lat="42.64894" lon="1.71948">
        <ele>2278.94</ele>
        <time>2019-06-08T12:31:13Z</time>
      </trkpt>
      <trkpt lat="42.64892" lon="1.71952">
        <ele>2280.87</ele>
        <time>2019-06-08T12:31:18Z</time>
      </trkpt>
      <trkpt lat="42.64889" lon="1.71958">
        <ele>2283.27</ele>
        <time>2019-06-08T12:31:28Z</time>
      </trkpt>
      <trkpt lat="42.64885" lon="1.7197">
        <ele>2289.04</ele>
        <time>2019-06-08T12:31:48Z</time>
      </trkpt>
      <trkpt lat="42.64883" lon="1.71973">
        <ele>2292.4</ele>
        <time>2019-06-08T12:31:55Z</time>
      </trkpt>
      <trkpt lat="42.6488" lon="1.71982">
        <ele>2295.77</ele>
        <time>2019-06-08T12:32:13Z</time>
      </trkpt>
      <trkpt lat="42.64878" lon="1.71984">
        <ele>2291.92</ele>
        <time>2019-06-08T12:32:22Z</time>
      </trkpt>
      <trkpt lat="42.64878" lon="1.71984">
        <ele>2296.25</ele>
        <time>2019-06-08T12:32:25Z</time>
      </trkpt>
      <trkpt lat="42.64878" lon="1.71985">
        <ele>2296.25</ele>
        <time>2019-06-08T12:32:26Z</time>
      </trkpt>
      <trkpt lat="42.64877" lon="1.71987">
        <ele>2292.4</ele>
        <time>2019-06-08T12:32:30Z</time>
      </trkpt>
      <trkpt lat="42.64867" lon="1.72">
        <ele>2288.56</ele>
        <time>2019-06-08T12:33:00Z</time>
      </trkpt>
      <trkpt lat="42.64866" lon="1.72002">
        <ele>2291.92</ele>
        <time>2019-06-08T12:33:02Z</time>
      </trkpt>
      <trkpt lat="42.64866" lon="1.72007">
        <ele>2298.65</ele>
        <time>2019-06-08T12:33:09Z</time>
      </trkpt>
      <trkpt lat="42.64872" lon="1.72015">
        <ele>2302.01</ele>
        <time>2019-06-08T12:33:27Z</time>
      </trkpt>
      <trkpt lat="42.64872" lon="1.72025">
        <ele>2300.57</ele>
        <time>2019-06-08T12:33:41Z</time>
      </trkpt>
      <trkpt lat="42.64869" lon="1.72031">
        <ele>2297.21</ele>
        <time>2019-06-08T12:34:01Z</time>
      </trkpt>
      <trkpt lat="42.64868" lon="1.72032">
        <ele>2299.13</ele>
        <time>2019-06-08T12:34:02Z</time>
      </trkpt>
      <trkpt lat="42.64867" lon="1.72034">
        <ele>2302.49</ele>
        <time>2019-06-08T12:34:04Z</time>
      </trkpt>
      <trkpt lat="42.64865" lon="1.72039">
        <ele>2297.69</ele>
        <time>2019-06-08T12:34:11Z</time>
      </trkpt>
      <trkpt lat="42.6486" lon="1.72043">
        <ele>2301.53</ele>
        <time>2019-06-08T12:34:19Z</time>
      </trkpt>
      <trkpt lat="42.64855" lon="1.72055">
        <ele>2307.78</ele>
        <time>2019-06-08T12:34:39Z</time>
      </trkpt>
      <trkpt lat="42.64855" lon="1.72056">
        <ele>2304.9</ele>
        <time>2019-06-08T12:34:40Z</time>
      </trkpt>
      <trkpt lat="42.64853" lon="1.72059">
        <ele>2308.74</ele>
        <time>2019-06-08T12:34:49Z</time>
      </trkpt>
      <trkpt lat="42.64847" lon="1.72075">
        <ele>2311.15</ele>
        <time>2019-06-08T12:35:30Z</time>
      </trkpt>
      <trkpt lat="42.64847" lon="1.72075">
        <ele>2311.15</ele>
        <time>2019-06-08T12:35:31Z</time>
      </trkpt>
      <trkpt lat="42.64845" lon="1.72083">
        <ele>2315.47</ele>
        <time>2019-06-08T12:35:48Z</time>
      </trkpt>
      <trkpt lat="42.64845" lon="1.72083">
        <ele>2314.99</ele>
        <time>2019-06-08T12:35:49Z</time>
      </trkpt>
      <trkpt lat="42.64841" lon="1.7209">
        <ele>2319.32</ele>
        <time>2019-06-08T12:36:08Z</time>
      </trkpt>
      <trkpt lat="42.6484" lon="1.72091">
        <ele>2315.47</ele>
        <time>2019-06-08T12:36:10Z</time>
      </trkpt>
      <trkpt lat="42.64839" lon="1.72095">
        <ele>2320.28</ele>
        <time>2019-06-08T12:36:19Z</time>
      </trkpt>
      <trkpt lat="42.64839" lon="1.72096">
        <ele>2314.99</ele>
        <time>2019-06-08T12:36:23Z</time>
      </trkpt>
      <trkpt lat="42.64839" lon="1.72097">
        <ele>2318.84</ele>
        <time>2019-06-08T12:36:24Z</time>
      </trkpt>
      <trkpt lat="42.64838" lon="1.72099">
        <ele>2317.4</ele>
        <time>2019-06-08T12:36:29Z</time>
      </trkpt>
      <trkpt lat="42.64839" lon="1.72104">
        <ele>2320.76</ele>
        <time>2019-06-08T12:36:51Z</time>
      </trkpt>
      <trkpt lat="42.64842" lon="1.72106">
        <ele>2320.76</ele>
        <time>2019-06-08T12:37:06Z</time>
      </trkpt>
      <trkpt lat="42.64841" lon="1.72117">
        <ele>2322.2</ele>
        <time>2019-06-08T12:37:53Z</time>
      </trkpt>
      <trkpt lat="42.64842" lon="1.72115">
        <ele>2319.32</ele>
        <time>2019-06-08T12:39:13Z</time>
      </trkpt>
      <trkpt lat="42.64836" lon="1.72117">
        <ele>2322.68</ele>
        <time>2019-06-08T12:39:22Z</time>
      </trkpt>
      <trkpt lat="42.64837" lon="1.7212">
        <ele>2322.2</ele>
        <time>2019-06-08T12:39:41Z</time>
      </trkpt>
      <trkpt lat="42.64834" lon="1.72119">
        <ele>2316.91</ele>
        <time>2019-06-08T12:40:39Z</time>
      </trkpt>
      <trkpt lat="42.64834" lon="1.72119">
        <ele>2320.28</ele>
        <time>2019-06-08T12:40:45Z</time>
      </trkpt>
      <trkpt lat="42.64834" lon="1.72119">
        <ele>2321.24</ele>
        <time>2019-06-08T12:41:04Z</time>
      </trkpt>
      <trkpt lat="42.64834" lon="1.72119">
        <ele>2325.09</ele>
        <time>2019-06-08T12:42:31Z</time>
      </trkpt>
      <trkpt lat="42.64834" lon="1.72119">
        <ele>2323.64</ele>
        <time>2019-06-08T12:42:35Z</time>
      </trkpt>
      <trkpt lat="42.64833" lon="1.72118">
        <ele>2318.36</ele>
        <time>2019-06-08T12:43:16Z</time>
      </trkpt>
      <trkpt lat="42.64833" lon="1.72118">
        <ele>2318.36</ele>
        <time>2019-06-08T12:43:17Z</time>
      </trkpt>
      <trkpt lat="42.64833" lon="1.72118">
        <ele>2323.16</ele>
        <time>2019-06-08T12:43:18Z</time>
      </trkpt>
      <trkpt lat="42.64833" lon="1.72118">
        <ele>2322.68</ele>
        <time>2019-06-08T12:43:19Z</time>
      </trkpt>
      <trkpt lat="42.6483" lon="1.72121">
        <ele>2317.88</ele>
        <time>2019-06-08T12:43:26Z</time>
      </trkpt>
      <trkpt lat="42.64828" lon="1.7212">
        <ele>2321.72</ele>
        <time>2019-06-08T12:43:31Z</time>
      </trkpt>
      <trkpt lat="42.64828" lon="1.72119">
        <ele>2321.72</ele>
        <time>2019-06-08T12:43:32Z</time>
      </trkpt>
      <trkpt lat="42.64831" lon="1.72121">
        <ele>2325.09</ele>
        <time>2019-06-08T12:44:15Z</time>
      </trkpt>
      <trkpt lat="42.64831" lon="1.72121">
        <ele>2324.61</ele>
        <time>2019-06-08T12:44:16Z</time>
      </trkpt>
      <trkpt lat="42.64831" lon="1.72121">
        <ele>2320.28</ele>
        <time>2019-06-08T12:44:18Z</time>
      </trkpt>
      <trkpt lat="42.64831" lon="1.72121">
        <ele>2320.76</ele>
        <time>2019-06-08T12:44:19Z</time>
      </trkpt>
      <trkpt lat="42.64832" lon="1.72126">
        <ele>2322.2</ele>
        <time>2019-06-08T12:44:37Z</time>
      </trkpt>
      <trkpt lat="42.64832" lon="1.72126">
        <ele>2326.05</ele>
        <time>2019-06-08T12:45:51Z</time>
      </trkpt>
      <trkpt lat="42.64832" lon="1.72126">
        <ele>2322.68</ele>
        <time>2019-06-08T12:45:52Z</time>
      </trkpt>
      <trkpt lat="42.6483" lon="1.72125">
        <ele>2321.72</ele>
        <time>2019-06-08T12:48:31Z</time>
      </trkpt>
      <trkpt lat="42.64821" lon="1.7212">
        <ele>2315.95</ele>
        <time>2019-06-08T12:49:07Z</time>
      </trkpt>
      <trkpt lat="42.64821" lon="1.72121">
        <ele>2316.43</ele>
        <time>2019-06-08T12:49:08Z</time>
      </trkpt>
      <trkpt lat="42.64815" lon="1.72138">
        <ele>2310.67</ele>
        <time>2019-06-08T12:49:38Z</time>
      </trkpt>
      <trkpt lat="42.64815" lon="1.72139">
        <ele>2315.47</ele>
        <time>2019-06-08T12:49:39Z</time>
      </trkpt>
      <trkpt lat="42.64815" lon="1.7214">
        <ele>2312.11</ele>
        <time>2019-06-08T12:49:40Z</time>
      </trkpt>
      <trkpt lat="42.6481" lon="1.72143">
        <ele>2308.26</ele>
        <time>2019-06-08T12:49:52Z</time>
      </trkpt>
      <trkpt lat="42.64808" lon="1.72145">
        <ele>2308.26</ele>
        <time>2019-06-08T12:49:56Z</time>
      </trkpt>
      <trkpt lat="42.648" lon="1.72148">
        <ele>2307.3</ele>
        <time>2019-06-08T12:50:05Z</time>
      </trkpt>
      <trkpt lat="42.6479" lon="1.72158">
        <ele>2302.98</ele>
        <time>2019-06-08T12:50:16Z</time>
      </trkpt>
      <trkpt lat="42.6479" lon="1.72159">
        <ele>2303.46</ele>
        <time>2019-06-08T12:50:17Z</time>
      </trkpt>
      <trkpt lat="42.64776" lon="1.72166">
        <ele>2302.98</ele>
        <time>2019-06-08T12:50:34Z</time>
      </trkpt>
      <trkpt lat="42.64753" lon="1.7218">
        <ele>2302.98</ele>
        <time>2019-06-08T12:51:04Z</time>
      </trkpt>
      <trkpt lat="42.64738" lon="1.72197">
        <ele>2305.38</ele>
        <time>2019-06-08T12:51:31Z</time>
      </trkpt>
      <trkpt lat="42.64738" lon="1.72197">
        <ele>2301.05</ele>
        <time>2019-06-08T12:51:32Z</time>
      </trkpt>
      <trkpt lat="42.64737" lon="1.72197">
        <ele>2297.21</ele>
        <time>2019-06-08T12:51:34Z</time>
      </trkpt>
      <trkpt lat="42.64727" lon="1.72203">
        <ele>2290.96</ele>
        <time>2019-06-08T12:51:53Z</time>
      </trkpt>
      <trkpt lat="42.64726" lon="1.72203">
        <ele>2291.44</ele>
        <time>2019-06-08T12:51:54Z</time>
      </trkpt>
      <trkpt lat="42.64722" lon="1.72202">
        <ele>2290</ele>
        <time>2019-06-08T12:52:00Z</time>
      </trkpt>
      <trkpt lat="42.64706" lon="1.72206">
        <ele>2283.27</ele>
        <time>2019-06-08T12:52:26Z</time>
      </trkpt>
      <trkpt lat="42.64706" lon="1.72206">
        <ele>2287.11</ele>
        <time>2019-06-08T12:52:27Z</time>
      </trkpt>
      <trkpt lat="42.64705" lon="1.72205">
        <ele>2290.48</ele>
        <time>2019-06-08T12:52:29Z</time>
      </trkpt>
      <trkpt lat="42.64706" lon="1.72205">
        <ele>2286.63</ele>
        <time>2019-06-08T12:52:59Z</time>
      </trkpt>
      <trkpt lat="42.64701" lon="1.7221">
        <ele>2279.42</ele>
        <time>2019-06-08T12:53:09Z</time>
      </trkpt>
      <trkpt lat="42.647" lon="1.72211">
        <ele>2285.19</ele>
        <time>2019-06-08T12:53:11Z</time>
      </trkpt>
      <trkpt lat="42.64698" lon="1.72222">
        <ele>2279.42</ele>
        <time>2019-06-08T12:53:27Z</time>
      </trkpt>
      <trkpt lat="42.64697" lon="1.72223">
        <ele>2276.06</ele>
        <time>2019-06-08T12:53:29Z</time>
      </trkpt>
      <trkpt lat="42.64695" lon="1.72225">
        <ele>2279.9</ele>
        <time>2019-06-08T12:53:32Z</time>
      </trkpt>
      <trkpt lat="42.64694" lon="1.72227">
        <ele>2274.62</ele>
        <time>2019-06-08T12:53:35Z</time>
      </trkpt>
      <trkpt lat="42.64691" lon="1.72231">
        <ele>2274.62</ele>
        <time>2019-06-08T12:53:39Z</time>
      </trkpt>
      <trkpt lat="42.64683" lon="1.72241">
        <ele>2276.06</ele>
        <time>2019-06-08T12:53:50Z</time>
      </trkpt>
      <trkpt lat="42.64672" lon="1.72256">
        <ele>2277.98</ele>
        <time>2019-06-08T12:54:07Z</time>
      </trkpt>
      <trkpt lat="42.6467" lon="1.72258">
        <ele>2273.17</ele>
        <time>2019-06-08T12:54:09Z</time>
      </trkpt>
      <trkpt lat="42.6467" lon="1.72258">
        <ele>2275.1</ele>
        <time>2019-06-08T12:54:10Z</time>
      </trkpt>
      <trkpt lat="42.64665" lon="1.72266">
        <ele>2270.77</ele>
        <time>2019-06-08T12:54:19Z</time>
      </trkpt>
      <trkpt lat="42.64659" lon="1.72268">
        <ele>2269.81</ele>
        <time>2019-06-08T12:54:26Z</time>
      </trkpt>
      <trkpt lat="42.64647" lon="1.72286">
        <ele>2265.48</ele>
        <time>2019-06-08T12:54:54Z</time>
      </trkpt>
      <trkpt lat="42.64647" lon="1.72285">
        <ele>2266.45</ele>
        <time>2019-06-08T12:54:55Z</time>
      </trkpt>
      <trkpt lat="42.64646" lon="1.72286">
        <ele>2259.72</ele>
        <time>2019-06-08T12:54:57Z</time>
      </trkpt>
      <trkpt lat="42.64643" lon="1.72286">
        <ele>2263.56</ele>
        <time>2019-06-08T12:55:02Z</time>
      </trkpt>
      <trkpt lat="42.64643" lon="1.72287">
        <ele>2267.41</ele>
        <time>2019-06-08T12:55:03Z</time>
      </trkpt>
      <trkpt lat="42.64642" lon="1.72292">
        <ele>2259.24</ele>
        <time>2019-06-08T12:55:08Z</time>
      </trkpt>
      <trkpt lat="42.6464" lon="1.72293">
        <ele>2262.6</ele>
        <time>2019-06-08T12:55:10Z</time>
      </trkpt>
      <trkpt lat="42.64639" lon="1.72294">
        <ele>2267.41</ele>
        <time>2019-06-08T12:55:12Z</time>
      </trkpt>
      <trkpt lat="42.64638" lon="1.72295">
        <ele>2263.56</ele>
        <time>2019-06-08T12:55:13Z</time>
      </trkpt>
      <trkpt lat="42.64637" lon="1.72296">
        <ele>2267.41</ele>
        <time>2019-06-08T12:55:14Z</time>
      </trkpt>
      <trkpt lat="42.64637" lon="1.72299">
        <ele>2270.77</ele>
        <time>2019-06-08T12:55:17Z</time>
      </trkpt>
      <trkpt lat="42.64638" lon="1.723">
        <ele>2265.48</ele>
        <time>2019-06-08T12:55:19Z</time>
      </trkpt>
      <trkpt lat="42.64636" lon="1.72303">
        <ele>2256.35</ele>
        <time>2019-06-08T12:55:23Z</time>
      </trkpt>
      <trkpt lat="42.64635" lon="1.72303">
        <ele>2252.99</ele>
        <time>2019-06-08T12:55:24Z</time>
      </trkpt>
      <trkpt lat="42.64634" lon="1.72304">
        <ele>2254.43</ele>
        <time>2019-06-08T12:55:25Z</time>
      </trkpt>
      <trkpt lat="42.64632" lon="1.72304">
        <ele>2258.75</ele>
        <time>2019-06-08T12:55:28Z</time>
      </trkpt>
      <trkpt lat="42.64632" lon="1.72306">
        <ele>2263.56</ele>
        <time>2019-06-08T12:55:32Z</time>
      </trkpt>
      <trkpt lat="42.64631" lon="1.72307">
        <ele>2263.08</ele>
        <time>2019-06-08T12:55:33Z</time>
      </trkpt>
      <trkpt lat="42.64631" lon="1.72307">
        <ele>2255.87</ele>
        <time>2019-06-08T12:55:35Z</time>
      </trkpt>
      <trkpt lat="42.6463" lon="1.72307">
        <ele>2262.12</ele>
        <time>2019-06-08T12:55:37Z</time>
      </trkpt>
      <trkpt lat="42.64629" lon="1.72311">
        <ele>2254.43</ele>
        <time>2019-06-08T12:55:45Z</time>
      </trkpt>
      <trkpt lat="42.64628" lon="1.72312">
        <ele>2259.72</ele>
        <time>2019-06-08T12:55:46Z</time>
      </trkpt>
      <trkpt lat="42.64627" lon="1.72316">
        <ele>2256.35</ele>
        <time>2019-06-08T12:55:50Z</time>
      </trkpt>
      <trkpt lat="42.64625" lon="1.72321">
        <ele>2249.14</ele>
        <time>2019-06-08T12:55:56Z</time>
      </trkpt>
      <trkpt lat="42.64625" lon="1.72322">
        <ele>2250.58</ele>
        <time>2019-06-08T12:55:57Z</time>
      </trkpt>
      <trkpt lat="42.64625" lon="1.72323">
        <ele>2252.03</ele>
        <time>2019-06-08T12:55:59Z</time>
      </trkpt>
      <trkpt lat="42.64619" lon="1.72335">
        <ele>2258.27</ele>
        <time>2019-06-08T12:56:08Z</time>
      </trkpt>
      <trkpt lat="42.64619" lon="1.72336">
        <ele>2256.35</ele>
        <time>2019-06-08T12:56:09Z</time>
      </trkpt>
      <trkpt lat="42.64618" lon="1.72337">
        <ele>2251.54</ele>
        <time>2019-06-08T12:56:10Z</time>
      </trkpt>
      <trkpt lat="42.64612" lon="1.72354">
        <ele>2245.3</ele>
        <time>2019-06-08T12:56:23Z</time>
      </trkpt>
      <trkpt lat="42.64608" lon="1.72361">
        <ele>2244.82</ele>
        <time>2019-06-08T12:56:29Z</time>
      </trkpt>
      <trkpt lat="42.64607" lon="1.72367">
        <ele>2248.18</ele>
        <time>2019-06-08T12:56:46Z</time>
      </trkpt>
      <trkpt lat="42.64603" lon="1.72372">
        <ele>2244.82</ele>
        <time>2019-06-08T12:56:50Z</time>
      </trkpt>
      <trkpt lat="42.64601" lon="1.72375">
        <ele>2249.14</ele>
        <time>2019-06-08T12:56:53Z</time>
      </trkpt>
      <trkpt lat="42.646" lon="1.72377">
        <ele>2244.82</ele>
        <time>2019-06-08T12:56:55Z</time>
      </trkpt>
      <trkpt lat="42.64599" lon="1.72378">
        <ele>2246.26</ele>
        <time>2019-06-08T12:56:56Z</time>
      </trkpt>
      <trkpt lat="42.64599" lon="1.72379">
        <ele>2252.03</ele>
        <time>2019-06-08T12:56:58Z</time>
      </trkpt>
      <trkpt lat="42.64599" lon="1.72381">
        <ele>2252.03</ele>
        <time>2019-06-08T12:56:59Z</time>
      </trkpt>
      <trkpt lat="42.64598" lon="1.72384">
        <ele>2248.18</ele>
        <time>2019-06-08T12:57:01Z</time>
      </trkpt>
      <trkpt lat="42.64595" lon="1.7239">
        <ele>2243.85</ele>
        <time>2019-06-08T12:57:12Z</time>
      </trkpt>
      <trkpt lat="42.64594" lon="1.72392">
        <ele>2250.1</ele>
        <time>2019-06-08T12:57:16Z</time>
      </trkpt>
      <trkpt lat="42.64593" lon="1.72393">
        <ele>2249.62</ele>
        <time>2019-06-08T12:57:17Z</time>
      </trkpt>
      <trkpt lat="42.64592" lon="1.72396">
        <ele>2247.7</ele>
        <time>2019-06-08T12:57:25Z</time>
      </trkpt>
      <trkpt lat="42.64592" lon="1.72402">
        <ele>2250.58</ele>
        <time>2019-06-08T12:57:35Z</time>
      </trkpt>
      <trkpt lat="42.64586" lon="1.72415">
        <ele>2252.51</ele>
        <time>2019-06-08T12:57:50Z</time>
      </trkpt>
      <trkpt lat="42.64585" lon="1.72426">
        <ele>2248.18</ele>
        <time>2019-06-08T12:58:04Z</time>
      </trkpt>
      <trkpt lat="42.64583" lon="1.72432">
        <ele>2249.14</ele>
        <time>2019-06-08T12:58:10Z</time>
      </trkpt>
      <trkpt lat="42.64579" lon="1.72441">
        <ele>2253.47</ele>
        <time>2019-06-08T12:58:22Z</time>
      </trkpt>
      <trkpt lat="42.64576" lon="1.72444">
        <ele>2251.06</ele>
        <time>2019-06-08T12:58:27Z</time>
      </trkpt>
      <trkpt lat="42.64574" lon="1.72467">
        <ele>2247.7</ele>
        <time>2019-06-08T12:58:52Z</time>
      </trkpt>
      <trkpt lat="42.64574" lon="1.72468">
        <ele>2249.62</ele>
        <time>2019-06-08T12:58:53Z</time>
      </trkpt>
      <trkpt lat="42.64572" lon="1.72474">
        <ele>2254.91</ele>
        <time>2019-06-08T12:58:59Z</time>
      </trkpt>
      <trkpt lat="42.64567" lon="1.72486">
        <ele>2249.14</ele>
        <time>2019-06-08T12:59:12Z</time>
      </trkpt>
      <trkpt lat="42.64559" lon="1.72498">
        <ele>2248.66</ele>
        <time>2019-06-08T12:59:30Z</time>
      </trkpt>
      <trkpt lat="42.64538" lon="1.72525">
        <ele>2252.51</ele>
        <time>2019-06-08T13:00:02Z</time>
      </trkpt>
      <trkpt lat="42.64538" lon="1.72526">
        <ele>2249.14</ele>
        <time>2019-06-08T13:00:03Z</time>
      </trkpt>
      <trkpt lat="42.64508" lon="1.72562">
        <ele>2250.58</ele>
        <time>2019-06-08T13:00:50Z</time>
      </trkpt>
      <trkpt lat="42.64493" lon="1.72581">
        <ele>2253.95</ele>
        <time>2019-06-08T13:01:16Z</time>
      </trkpt>
      <trkpt lat="42.64493" lon="1.72582">
        <ele>2252.99</ele>
        <time>2019-06-08T13:01:17Z</time>
      </trkpt>
      <trkpt lat="42.64491" lon="1.72583">
        <ele>2248.66</ele>
        <time>2019-06-08T13:01:24Z</time>
      </trkpt>
      <trkpt lat="42.6449" lon="1.72585">
        <ele>2252.03</ele>
        <time>2019-06-08T13:01:27Z</time>
      </trkpt>
      <trkpt lat="42.64489" lon="1.72586">
        <ele>2256.35</ele>
        <time>2019-06-08T13:01:28Z</time>
      </trkpt>
      <trkpt lat="42.64489" lon="1.72587">
        <ele>2259.72</ele>
        <time>2019-06-08T13:01:30Z</time>
      </trkpt>
      <trkpt lat="42.64488" lon="1.72588">
        <ele>2252.51</ele>
        <time>2019-06-08T13:01:31Z</time>
      </trkpt>
      <trkpt lat="42.64484" lon="1.72593">
        <ele>2257.79</ele>
        <time>2019-06-08T13:01:39Z</time>
      </trkpt>
      <trkpt lat="42.64484" lon="1.72594">
        <ele>2255.39</ele>
        <time>2019-06-08T13:01:40Z</time>
      </trkpt>
      <trkpt lat="42.64482" lon="1.72595">
        <ele>2259.72</ele>
        <time>2019-06-08T13:01:43Z</time>
      </trkpt>
      <trkpt lat="42.64482" lon="1.72596">
        <ele>2255.87</ele>
        <time>2019-06-08T13:01:44Z</time>
      </trkpt>
      <trkpt lat="42.6448" lon="1.726">
        <ele>2259.24</ele>
        <time>2019-06-08T13:01:51Z</time>
      </trkpt>
      <trkpt lat="42.6448" lon="1.72601">
        <ele>2254.91</ele>
        <time>2019-06-08T13:01:53Z</time>
      </trkpt>
      <trkpt lat="42.6448" lon="1.72601">
        <ele>2259.72</ele>
        <time>2019-06-08T13:02:00Z</time>
      </trkpt>
      <trkpt lat="42.6448" lon="1.72601">
        <ele>2256.35</ele>
        <time>2019-06-08T13:02:01Z</time>
      </trkpt>
      <trkpt lat="42.6448" lon="1.72601">
        <ele>2259.72</ele>
        <time>2019-06-08T13:02:02Z</time>
      </trkpt>
      <trkpt lat="42.64467" lon="1.72632">
        <ele>2263.56</ele>
        <time>2019-06-08T13:02:45Z</time>
      </trkpt>
      <trkpt lat="42.64466" lon="1.72634">
        <ele>2259.72</ele>
        <time>2019-06-08T13:02:47Z</time>
      </trkpt>
      <trkpt lat="42.64454" lon="1.72661">
        <ele>2257.79</ele>
        <time>2019-06-08T13:03:10Z</time>
      </trkpt>
      <trkpt lat="42.64448" lon="1.72677">
        <ele>2263.56</ele>
        <time>2019-06-08T13:03:26Z</time>
      </trkpt>
      <trkpt lat="42.64448" lon="1.72678">
        <ele>2259.24</ele>
        <time>2019-06-08T13:03:27Z</time>
      </trkpt>
      <trkpt lat="42.64448" lon="1.72679">
        <ele>2260.2</ele>
        <time>2019-06-08T13:03:28Z</time>
      </trkpt>
      <trkpt lat="42.64448" lon="1.72682">
        <ele>2265.48</ele>
        <time>2019-06-08T13:03:30Z</time>
      </trkpt>
      <trkpt lat="42.64448" lon="1.72684">
        <ele>2261.64</ele>
        <time>2019-06-08T13:03:31Z</time>
      </trkpt>
      <trkpt lat="42.64446" lon="1.72689">
        <ele>2265</ele>
        <time>2019-06-08T13:03:35Z</time>
      </trkpt>
      <trkpt lat="42.64446" lon="1.7269">
        <ele>2261.16</ele>
        <time>2019-06-08T13:03:36Z</time>
      </trkpt>
      <trkpt lat="42.64444" lon="1.72692">
        <ele>2256.83</ele>
        <time>2019-06-08T13:03:38Z</time>
      </trkpt>
      <trkpt lat="42.64441" lon="1.72698">
        <ele>2263.08</ele>
        <time>2019-06-08T13:03:45Z</time>
      </trkpt>
      <trkpt lat="42.64441" lon="1.72699">
        <ele>2262.6</ele>
        <time>2019-06-08T13:03:46Z</time>
      </trkpt>
      <trkpt lat="42.64441" lon="1.72701">
        <ele>2259.24</ele>
        <time>2019-06-08T13:03:48Z</time>
      </trkpt>
      <trkpt lat="42.6444" lon="1.72704">
        <ele>2261.16</ele>
        <time>2019-06-08T13:03:50Z</time>
      </trkpt>
      <trkpt lat="42.64439" lon="1.72706">
        <ele>2255.39</ele>
        <time>2019-06-08T13:03:52Z</time>
      </trkpt>
      <trkpt lat="42.64436" lon="1.72711">
        <ele>2261.16</ele>
        <time>2019-06-08T13:03:56Z</time>
      </trkpt>
      <trkpt lat="42.64435" lon="1.72713">
        <ele>2254.91</ele>
        <time>2019-06-08T13:03:58Z</time>
      </trkpt>
      <trkpt lat="42.64435" lon="1.72714">
        <ele>2254.91</ele>
        <time>2019-06-08T13:03:59Z</time>
      </trkpt>
      <trkpt lat="42.64433" lon="1.72715">
        <ele>2261.64</ele>
        <time>2019-06-08T13:04:01Z</time>
      </trkpt>
      <trkpt lat="42.64431" lon="1.72719">
        <ele>2254.91</ele>
        <time>2019-06-08T13:04:04Z</time>
      </trkpt>
      <trkpt lat="42.64427" lon="1.7273">
        <ele>2251.06</ele>
        <time>2019-06-08T13:04:12Z</time>
      </trkpt>
      <trkpt lat="42.64418" lon="1.72754">
        <ele>2244.33</ele>
        <time>2019-06-08T13:04:33Z</time>
      </trkpt>
      <trkpt lat="42.64417" lon="1.72756">
        <ele>2249.14</ele>
        <time>2019-06-08T13:04:39Z</time>
      </trkpt>
      <trkpt lat="42.64417" lon="1.72756">
        <ele>2248.18</ele>
        <time>2019-06-08T13:04:40Z</time>
      </trkpt>
      <trkpt lat="42.64416" lon="1.72757">
        <ele>2244.82</ele>
        <time>2019-06-08T13:04:42Z</time>
      </trkpt>
      <trkpt lat="42.6441" lon="1.72769">
        <ele>2248.18</ele>
        <time>2019-06-08T13:05:25Z</time>
      </trkpt>
      <trkpt lat="42.6441" lon="1.72769">
        <ele>2242.41</ele>
        <time>2019-06-08T13:05:34Z</time>
      </trkpt>
      <trkpt lat="42.64397" lon="1.72769">
        <ele>2239.53</ele>
        <time>2019-06-08T13:05:58Z</time>
      </trkpt>
      <trkpt lat="42.64381" lon="1.7277">
        <ele>2239.05</ele>
        <time>2019-06-08T13:06:14Z</time>
      </trkpt>
      <trkpt lat="42.64369" lon="1.72766">
        <ele>2234.72</ele>
        <time>2019-06-08T13:06:24Z</time>
      </trkpt>
      <trkpt lat="42.64368" lon="1.72765">
        <ele>2234.72</ele>
        <time>2019-06-08T13:06:25Z</time>
      </trkpt>
      <trkpt lat="42.6434" lon="1.72758">
        <ele>2234.72</ele>
        <time>2019-06-08T13:06:55Z</time>
      </trkpt>
      <trkpt lat="42.64318" lon="1.72753">
        <ele>2235.2</ele>
        <time>2019-06-08T13:07:17Z</time>
      </trkpt>
      <trkpt lat="42.64297" lon="1.72764">
        <ele>2234.72</ele>
        <time>2019-06-08T13:07:39Z</time>
      </trkpt>
      <trkpt lat="42.64282" lon="1.72773">
        <ele>2232.32</ele>
        <time>2019-06-08T13:07:58Z</time>
      </trkpt>
      <trkpt lat="42.64278" lon="1.72771">
        <ele>2232.32</ele>
        <time>2019-06-08T13:08:02Z</time>
      </trkpt>
      <trkpt lat="42.64275" lon="1.72772">
        <ele>2230.4</ele>
        <time>2019-06-08T13:08:06Z</time>
      </trkpt>
      <trkpt lat="42.6427" lon="1.72773">
        <ele>2235.2</ele>
        <time>2019-06-08T13:08:09Z</time>
      </trkpt>
      <trkpt lat="42.64268" lon="1.72774">
        <ele>2234.24</ele>
        <time>2019-06-08T13:08:10Z</time>
      </trkpt>
      <trkpt lat="42.6425" lon="1.72771">
        <ele>2230.4</ele>
        <time>2019-06-08T13:08:25Z</time>
      </trkpt>
      <trkpt lat="42.64224" lon="1.72771">
        <ele>2227.03</ele>
        <time>2019-06-08T13:08:50Z</time>
      </trkpt>
      <trkpt lat="42.64219" lon="1.72771">
        <ele>2227.99</ele>
        <time>2019-06-08T13:09:33Z</time>
      </trkpt>
      <trkpt lat="42.642" lon="1.72761">
        <ele>2227.51</ele>
        <time>2019-06-08T13:10:01Z</time>
      </trkpt>
      <trkpt lat="42.64192" lon="1.72755">
        <ele>2230.88</ele>
        <time>2019-06-08T13:10:11Z</time>
      </trkpt>
      <trkpt lat="42.64189" lon="1.72748">
        <ele>2230.88</ele>
        <time>2019-06-08T13:10:17Z</time>
      </trkpt>
      <trkpt lat="42.64164" lon="1.72728">
        <ele>2234.72</ele>
        <time>2019-06-08T13:10:50Z</time>
      </trkpt>
      <trkpt lat="42.64151" lon="1.72709">
        <ele>2238.09</ele>
        <time>2019-06-08T13:11:19Z</time>
      </trkpt>
      <trkpt lat="42.64134" lon="1.72689">
        <ele>2242.41</ele>
        <time>2019-06-08T13:12:00Z</time>
      </trkpt>
      <trkpt lat="42.64118" lon="1.72682">
        <ele>2243.85</ele>
        <time>2019-06-08T13:12:26Z</time>
      </trkpt>
      <trkpt lat="42.64094" lon="1.72697">
        <ele>2245.3</ele>
        <time>2019-06-08T13:13:17Z</time>
      </trkpt>
      <trkpt lat="42.64089" lon="1.7271">
        <ele>2244.82</ele>
        <time>2019-06-08T13:14:14Z</time>
      </trkpt>
      <trkpt lat="42.64085" lon="1.72744">
        <ele>2241.93</ele>
        <time>2019-06-08T13:14:39Z</time>
      </trkpt>
      <trkpt lat="42.64076" lon="1.72779">
        <ele>2238.57</ele>
        <time>2019-06-08T13:15:03Z</time>
      </trkpt>
      <trkpt lat="42.64073" lon="1.7279">
        <ele>2234.72</ele>
        <time>2019-06-08T13:15:11Z</time>
      </trkpt>
      <trkpt lat="42.64067" lon="1.72803">
        <ele>2235.2</ele>
        <time>2019-06-08T13:15:23Z</time>
      </trkpt>
      <trkpt lat="42.64059" lon="1.72822">
        <ele>2230.88</ele>
        <time>2019-06-08T13:15:39Z</time>
      </trkpt>
      <trkpt lat="42.64039" lon="1.72859">
        <ele>2226.07</ele>
        <time>2019-06-08T13:16:17Z</time>
      </trkpt>
      <trkpt lat="42.64033" lon="1.72865">
        <ele>2226.07</ele>
        <time>2019-06-08T13:16:25Z</time>
      </trkpt>
      <trkpt lat="42.63992" lon="1.72873">
        <ele>2223.19</ele>
        <time>2019-06-08T13:17:05Z</time>
      </trkpt>
      <trkpt lat="42.63968" lon="1.72869">
        <ele>2220.3</ele>
        <time>2019-06-08T13:17:29Z</time>
      </trkpt>
      <trkpt lat="42.63953" lon="1.72864">
        <ele>2219.82</ele>
        <time>2019-06-08T13:17:44Z</time>
      </trkpt>
      <trkpt lat="42.63942" lon="1.72844">
        <ele>2216.46</ele>
        <time>2019-06-08T13:18:03Z</time>
      </trkpt>
      <trkpt lat="42.63937" lon="1.72828">
        <ele>2215.5</ele>
        <time>2019-06-08T13:18:21Z</time>
      </trkpt>
      <trkpt lat="42.63918" lon="1.72806">
        <ele>2216.94</ele>
        <time>2019-06-08T13:18:43Z</time>
      </trkpt>
      <trkpt lat="42.63916" lon="1.72793">
        <ele>2214.05</ele>
        <time>2019-06-08T13:18:53Z</time>
      </trkpt>
      <trkpt lat="42.63917" lon="1.72782">
        <ele>2211.65</ele>
        <time>2019-06-08T13:19:03Z</time>
      </trkpt>
      <trkpt lat="42.63912" lon="1.72758">
        <ele>2209.25</ele>
        <time>2019-06-08T13:19:21Z</time>
      </trkpt>
      <trkpt lat="42.63911" lon="1.72753">
        <ele>2205.88</ele>
        <time>2019-06-08T13:19:25Z</time>
      </trkpt>
      <trkpt lat="42.63911" lon="1.72752">
        <ele>2205.88</ele>
        <time>2019-06-08T13:19:26Z</time>
      </trkpt>
      <trkpt lat="42.63903" lon="1.72736">
        <ele>2200.59</ele>
        <time>2019-06-08T13:19:44Z</time>
      </trkpt>
      <trkpt lat="42.63892" lon="1.72713">
        <ele>2195.31</ele>
        <time>2019-06-08T13:20:05Z</time>
      </trkpt>
      <trkpt lat="42.63891" lon="1.72711">
        <ele>2190.98</ele>
        <time>2019-06-08T13:20:09Z</time>
      </trkpt>
      <trkpt lat="42.63891" lon="1.72707">
        <ele>2194.35</ele>
        <time>2019-06-08T13:20:12Z</time>
      </trkpt>
      <trkpt lat="42.63889" lon="1.72698">
        <ele>2190.98</ele>
        <time>2019-06-08T13:20:20Z</time>
      </trkpt>
      <trkpt lat="42.63875" lon="1.72685">
        <ele>2190.02</ele>
        <time>2019-06-08T13:20:38Z</time>
      </trkpt>
      <trkpt lat="42.63867" lon="1.72675">
        <ele>2193.87</ele>
        <time>2019-06-08T13:20:47Z</time>
      </trkpt>
      <trkpt lat="42.63865" lon="1.72673">
        <ele>2190.02</ele>
        <time>2019-06-08T13:20:49Z</time>
      </trkpt>
      <trkpt lat="42.63835" lon="1.7263">
        <ele>2190.02</ele>
        <time>2019-06-08T13:21:30Z</time>
      </trkpt>
      <trkpt lat="42.63823" lon="1.72618">
        <ele>2189.54</ele>
        <time>2019-06-08T13:21:43Z</time>
      </trkpt>
      <trkpt lat="42.63818" lon="1.72617">
        <ele>2188.58</ele>
        <time>2019-06-08T13:21:48Z</time>
      </trkpt>
      <trkpt lat="42.638" lon="1.72597">
        <ele>2191.46</ele>
        <time>2019-06-08T13:22:19Z</time>
      </trkpt>
      <trkpt lat="42.63807" lon="1.72581">
        <ele>2192.42</ele>
        <time>2019-06-08T13:22:55Z</time>
      </trkpt>
      <trkpt lat="42.63805" lon="1.72579">
        <ele>2188.58</ele>
        <time>2019-06-08T13:23:37Z</time>
      </trkpt>
      <trkpt lat="42.63803" lon="1.72578">
        <ele>2188.1</ele>
        <time>2019-06-08T13:26:06Z</time>
      </trkpt>
      <trkpt lat="42.63801" lon="1.72577">
        <ele>2187.14</ele>
        <time>2019-06-08T13:29:26Z</time>
      </trkpt>
      <trkpt lat="42.638" lon="1.72576">
        <ele>2186.66</ele>
        <time>2019-06-08T13:31:32Z</time>
      </trkpt>
      <trkpt lat="42.63799" lon="1.72576">
        <ele>2190.02</ele>
        <time>2019-06-08T13:32:48Z</time>
      </trkpt>
      <trkpt lat="42.63798" lon="1.72576">
        <ele>2187.14</ele>
        <time>2019-06-08T13:33:39Z</time>
      </trkpt>
      <trkpt lat="42.63797" lon="1.72576">
        <ele>2186.18</ele>
        <time>2019-06-08T13:35:39Z</time>
      </trkpt>
      <trkpt lat="42.63798" lon="1.72576">
        <ele>2182.81</ele>
        <time>2019-06-08T13:36:10Z</time>
      </trkpt>
      <trkpt lat="42.63798" lon="1.72576">
        <ele>2186.18</ele>
        <time>2019-06-08T13:36:37Z</time>
      </trkpt>
      <trkpt lat="42.63797" lon="1.72577">
        <ele>2188.58</ele>
        <time>2019-06-08T13:39:38Z</time>
      </trkpt>
      <trkpt lat="42.63797" lon="1.72576">
        <ele>2192.42</ele>
        <time>2019-06-08T13:40:43Z</time>
      </trkpt>
      <trkpt lat="42.63796" lon="1.72576">
        <ele>2186.18</ele>
        <time>2019-06-08T13:41:48Z</time>
      </trkpt>
      <trkpt lat="42.63796" lon="1.72576">
        <ele>2187.14</ele>
        <time>2019-06-08T13:41:52Z</time>
      </trkpt>
      <trkpt lat="42.63796" lon="1.72574">
        <ele>2190.98</ele>
        <time>2019-06-08T13:45:10Z</time>
      </trkpt>
      <trkpt lat="42.63796" lon="1.72574">
        <ele>2188.58</ele>
        <time>2019-06-08T13:45:19Z</time>
      </trkpt>
      <trkpt lat="42.63793" lon="1.72571">
        <ele>2191.94</ele>
        <time>2019-06-08T13:47:55Z</time>
      </trkpt>
      <trkpt lat="42.63793" lon="1.72571">
        <ele>2188.58</ele>
        <time>2019-06-08T13:49:21Z</time>
      </trkpt>
      <trkpt lat="42.63792" lon="1.72571">
        <ele>2190.5</ele>
        <time>2019-06-08T13:50:20Z</time>
      </trkpt>
      <trkpt lat="42.6379" lon="1.72571">
        <ele>2191.46</ele>
        <time>2019-06-08T13:53:31Z</time>
      </trkpt>
      <trkpt lat="42.63803" lon="1.7256">
        <ele>2194.35</ele>
        <time>2019-06-08T13:55:23Z</time>
      </trkpt>
      <trkpt lat="42.63816" lon="1.72575">
        <ele>2195.31</ele>
        <time>2019-06-08T13:55:42Z</time>
      </trkpt>
      <trkpt lat="42.63852" lon="1.72579">
        <ele>2192.9</ele>
        <time>2019-06-08T13:56:14Z</time>
      </trkpt>
      <trkpt lat="42.63856" lon="1.7258">
        <ele>2192.9</ele>
        <time>2019-06-08T13:56:17Z</time>
      </trkpt>
      <trkpt lat="42.63904" lon="1.72574">
        <ele>2192.42</ele>
        <time>2019-06-08T13:56:55Z</time>
      </trkpt>
      <trkpt lat="42.63931" lon="1.72565">
        <ele>2188.1</ele>
        <time>2019-06-08T13:57:17Z</time>
      </trkpt>
      <trkpt lat="42.63936" lon="1.72564">
        <ele>2188.1</ele>
        <time>2019-06-08T13:57:22Z</time>
      </trkpt>
      <trkpt lat="42.63953" lon="1.72543">
        <ele>2189.54</ele>
        <time>2019-06-08T13:57:46Z</time>
      </trkpt>
      <trkpt lat="42.63958" lon="1.72537">
        <ele>2187.14</ele>
        <time>2019-06-08T13:57:52Z</time>
      </trkpt>
      <trkpt lat="42.63972" lon="1.72519">
        <ele>2184.25</ele>
        <time>2019-06-08T13:58:06Z</time>
      </trkpt>
      <trkpt lat="42.63978" lon="1.72512">
        <ele>2184.73</ele>
        <time>2019-06-08T13:58:11Z</time>
      </trkpt>
      <trkpt lat="42.63989" lon="1.72484">
        <ele>2181.85</ele>
        <time>2019-06-08T13:58:29Z</time>
      </trkpt>
      <trkpt lat="42.63996" lon="1.72467">
        <ele>2180.89</ele>
        <time>2019-06-08T13:58:41Z</time>
      </trkpt>
      <trkpt lat="42.63999" lon="1.72463">
        <ele>2182.33</ele>
        <time>2019-06-08T13:58:45Z</time>
      </trkpt>
      <trkpt lat="42.64015" lon="1.72446">
        <ele>2178.48</ele>
        <time>2019-06-08T13:59:01Z</time>
      </trkpt>
      <trkpt lat="42.64042" lon="1.72425">
        <ele>2177.52</ele>
        <time>2019-06-08T13:59:25Z</time>
      </trkpt>
      <trkpt lat="42.64049" lon="1.7242">
        <ele>2175.12</ele>
        <time>2019-06-08T13:59:31Z</time>
      </trkpt>
      <trkpt lat="42.64074" lon="1.72413">
        <ele>2173.68</ele>
        <time>2019-06-08T13:59:58Z</time>
      </trkpt>
      <trkpt lat="42.6409" lon="1.72404">
        <ele>2169.35</ele>
        <time>2019-06-08T14:00:13Z</time>
      </trkpt>
      <trkpt lat="42.6411" lon="1.724">
        <ele>2165.99</ele>
        <time>2019-06-08T14:00:31Z</time>
      </trkpt>
      <trkpt lat="42.64124" lon="1.72401">
        <ele>2162.14</ele>
        <time>2019-06-08T14:00:44Z</time>
      </trkpt>
      <trkpt lat="42.64126" lon="1.724">
        <ele>2162.14</ele>
        <time>2019-06-08T14:00:46Z</time>
      </trkpt>
      <trkpt lat="42.64151" lon="1.72404">
        <ele>2157.34</ele>
        <time>2019-06-08T14:01:15Z</time>
      </trkpt>
      <trkpt lat="42.64163" lon="1.724">
        <ele>2153.01</ele>
        <time>2019-06-08T14:01:33Z</time>
      </trkpt>
      <trkpt lat="42.64164" lon="1.72381">
        <ele>2150.61</ele>
        <time>2019-06-08T14:01:55Z</time>
      </trkpt>
      <trkpt lat="42.64158" lon="1.72371">
        <ele>2150.13</ele>
        <time>2019-06-08T14:02:06Z</time>
      </trkpt>
      <trkpt lat="42.64148" lon="1.72329">
        <ele>2148.2</ele>
        <time>2019-06-08T14:02:36Z</time>
      </trkpt>
      <trkpt lat="42.64154" lon="1.72284">
        <ele>2144.36</ele>
        <time>2019-06-08T14:03:06Z</time>
      </trkpt>
      <trkpt lat="42.64153" lon="1.72276">
        <ele>2143.88</ele>
        <time>2019-06-08T14:03:19Z</time>
      </trkpt>
      <trkpt lat="42.64158" lon="1.72255">
        <ele>2139.55</ele>
        <time>2019-06-08T14:03:34Z</time>
      </trkpt>
      <trkpt lat="42.64158" lon="1.72254">
        <ele>2140.03</ele>
        <time>2019-06-08T14:03:35Z</time>
      </trkpt>
      <trkpt lat="42.64161" lon="1.72244">
        <ele>2138.59</ele>
        <time>2019-06-08T14:03:43Z</time>
      </trkpt>
      <trkpt lat="42.64167" lon="1.72226">
        <ele>2134.74</ele>
        <time>2019-06-08T14:03:57Z</time>
      </trkpt>
      <trkpt lat="42.64171" lon="1.72204">
        <ele>2131.38</ele>
        <time>2019-06-08T14:04:15Z</time>
      </trkpt>
      <trkpt lat="42.64171" lon="1.72203">
        <ele>2131.38</ele>
        <time>2019-06-08T14:04:16Z</time>
      </trkpt>
      <trkpt lat="42.64181" lon="1.72178">
        <ele>2126.09</ele>
        <time>2019-06-08T14:04:36Z</time>
      </trkpt>
      <trkpt lat="42.6419" lon="1.72139">
        <ele>2120.32</ele>
        <time>2019-06-08T14:05:10Z</time>
      </trkpt>
      <trkpt lat="42.64199" lon="1.72127">
        <ele>2115.04</ele>
        <time>2019-06-08T14:05:25Z</time>
      </trkpt>
      <trkpt lat="42.64211" lon="1.7211">
        <ele>2112.15</ele>
        <time>2019-06-08T14:05:47Z</time>
      </trkpt>
      <trkpt lat="42.64215" lon="1.72091">
        <ele>2108.31</ele>
        <time>2019-06-08T14:06:12Z</time>
      </trkpt>
      <trkpt lat="42.64216" lon="1.72089">
        <ele>2108.79</ele>
        <time>2019-06-08T14:06:14Z</time>
      </trkpt>
      <trkpt lat="42.6422" lon="1.72054">
        <ele>2105.42</ele>
        <time>2019-06-08T14:06:39Z</time>
      </trkpt>
      <trkpt lat="42.64227" lon="1.72037">
        <ele>2102.06</ele>
        <time>2019-06-08T14:06:56Z</time>
      </trkpt>
      <trkpt lat="42.64228" lon="1.72034">
        <ele>2102.06</ele>
        <time>2019-06-08T14:07:00Z</time>
      </trkpt>
      <trkpt lat="42.64229" lon="1.72026">
        <ele>2099.66</ele>
        <time>2019-06-08T14:07:13Z</time>
      </trkpt>
      <trkpt lat="42.64226" lon="1.7201">
        <ele>2096.29</ele>
        <time>2019-06-08T14:07:28Z</time>
      </trkpt>
      <trkpt lat="42.64226" lon="1.72006">
        <ele>2096.29</ele>
        <time>2019-06-08T14:07:32Z</time>
      </trkpt>
      <trkpt lat="42.64232" lon="1.7199">
        <ele>2091.97</ele>
        <time>2019-06-08T14:07:49Z</time>
      </trkpt>
      <trkpt lat="42.64233" lon="1.7198">
        <ele>2087.64</ele>
        <time>2019-06-08T14:08:04Z</time>
      </trkpt>
      <trkpt lat="42.64234" lon="1.71967">
        <ele>2084.28</ele>
        <time>2019-06-08T14:08:17Z</time>
      </trkpt>
      <trkpt lat="42.64234" lon="1.71958">
        <ele>2080.91</ele>
        <time>2019-06-08T14:08:24Z</time>
      </trkpt>
      <trkpt lat="42.64233" lon="1.71941">
        <ele>2078.03</ele>
        <time>2019-06-08T14:08:39Z</time>
      </trkpt>
      <trkpt lat="42.6423" lon="1.71932">
        <ele>2074.18</ele>
        <time>2019-06-08T14:08:54Z</time>
      </trkpt>
      <trkpt lat="42.6423" lon="1.71929">
        <ele>2074.66</ele>
        <time>2019-06-08T14:08:57Z</time>
      </trkpt>
      <trkpt lat="42.64228" lon="1.71912">
        <ele>2069.38</ele>
        <time>2019-06-08T14:09:17Z</time>
      </trkpt>
      <trkpt lat="42.64237" lon="1.71886">
        <ele>2064.09</ele>
        <time>2019-06-08T14:09:44Z</time>
      </trkpt>
      <trkpt lat="42.64237" lon="1.71885">
        <ele>2064.09</ele>
        <time>2019-06-08T14:09:45Z</time>
      </trkpt>
      <trkpt lat="42.64237" lon="1.71882">
        <ele>2064.57</ele>
        <time>2019-06-08T14:10:27Z</time>
      </trkpt>
      <trkpt lat="42.64237" lon="1.71878">
        <ele>2064.09</ele>
        <time>2019-06-08T14:10:31Z</time>
      </trkpt>
      <trkpt lat="42.64237" lon="1.71863">
        <ele>2058.8</ele>
        <time>2019-06-08T14:10:47Z</time>
      </trkpt>
      <trkpt lat="42.64237" lon="1.71845">
        <ele>2054.47</ele>
        <time>2019-06-08T14:11:12Z</time>
      </trkpt>
      <trkpt lat="42.64236" lon="1.71845">
        <ele>2054.96</ele>
        <time>2019-06-08T14:11:33Z</time>
      </trkpt>
      <trkpt lat="42.64232" lon="1.71817">
        <ele>2053.51</ele>
        <time>2019-06-08T14:12:12Z</time>
      </trkpt>
      <trkpt lat="42.64233" lon="1.71797">
        <ele>2048.71</ele>
        <time>2019-06-08T14:12:31Z</time>
      </trkpt>
      <trkpt lat="42.6424" lon="1.71778">
        <ele>2043.9</ele>
        <time>2019-06-08T14:12:53Z</time>
      </trkpt>
      <trkpt lat="42.6424" lon="1.71777">
        <ele>2044.86</ele>
        <time>2019-06-08T14:13:05Z</time>
      </trkpt>
      <trkpt lat="42.64241" lon="1.71769">
        <ele>2041.02</ele>
        <time>2019-06-08T14:13:13Z</time>
      </trkpt>
      <trkpt lat="42.6424" lon="1.71748">
        <ele>2036.69</ele>
        <time>2019-06-08T14:13:47Z</time>
      </trkpt>
      <trkpt lat="42.64244" lon="1.71725">
        <ele>2032.36</ele>
        <time>2019-06-08T14:14:13Z</time>
      </trkpt>
      <trkpt lat="42.6424" lon="1.71713">
        <ele>2029</ele>
        <time>2019-06-08T14:14:29Z</time>
      </trkpt>
      <trkpt lat="42.6424" lon="1.71702">
        <ele>2024.67</ele>
        <time>2019-06-08T14:14:46Z</time>
      </trkpt>
      <trkpt lat="42.64238" lon="1.71697">
        <ele>2022.27</ele>
        <time>2019-06-08T14:14:59Z</time>
      </trkpt>
      <trkpt lat="42.64239" lon="1.71682">
        <ele>2018.43</ele>
        <time>2019-06-08T14:15:16Z</time>
      </trkpt>
      <trkpt lat="42.64237" lon="1.71659">
        <ele>2013.62</ele>
        <time>2019-06-08T14:15:42Z</time>
      </trkpt>
      <trkpt lat="42.64243" lon="1.71635">
        <ele>2010.25</ele>
        <time>2019-06-08T14:16:13Z</time>
      </trkpt>
      <trkpt lat="42.64241" lon="1.71623">
        <ele>2007.37</ele>
        <time>2019-06-08T14:16:27Z</time>
      </trkpt>
      <trkpt lat="42.6424" lon="1.71612">
        <ele>2004.01</ele>
        <time>2019-06-08T14:16:37Z</time>
      </trkpt>
      <trkpt lat="42.6424" lon="1.71591">
        <ele>2000.64</ele>
        <time>2019-06-08T14:16:57Z</time>
      </trkpt>
      <trkpt lat="42.64239" lon="1.71575">
        <ele>1996.8</ele>
        <time>2019-06-08T14:17:19Z</time>
      </trkpt>
      <trkpt lat="42.64239" lon="1.71558">
        <ele>1992.95</ele>
        <time>2019-06-08T14:17:40Z</time>
      </trkpt>
      <trkpt lat="42.6424" lon="1.7154">
        <ele>1988.14</ele>
        <time>2019-06-08T14:17:58Z</time>
      </trkpt>
      <trkpt lat="42.64238" lon="1.71518">
        <ele>1984.78</ele>
        <time>2019-06-08T14:18:22Z</time>
      </trkpt>
      <trkpt lat="42.64237" lon="1.71501">
        <ele>1981.41</ele>
        <time>2019-06-08T14:18:47Z</time>
      </trkpt>
      <trkpt lat="42.64238" lon="1.715">
        <ele>1980.45</ele>
        <time>2019-06-08T14:18:48Z</time>
      </trkpt>
      <trkpt lat="42.64236" lon="1.71476">
        <ele>1976.61</ele>
        <time>2019-06-08T14:19:11Z</time>
      </trkpt>
      <trkpt lat="42.64238" lon="1.71456">
        <ele>1975.65</ele>
        <time>2019-06-08T14:19:29Z</time>
      </trkpt>
      <trkpt lat="42.6424" lon="1.71442">
        <ele>1971.32</ele>
        <time>2019-06-08T14:19:44Z</time>
      </trkpt>
      <trkpt lat="42.6424" lon="1.71424">
        <ele>1970.36</ele>
        <time>2019-06-08T14:20:03Z</time>
      </trkpt>
      <trkpt lat="42.64243" lon="1.71391">
        <ele>1964.59</ele>
        <time>2019-06-08T14:20:43Z</time>
      </trkpt>
      <trkpt lat="42.64244" lon="1.71367">
        <ele>1960.75</ele>
        <time>2019-06-08T14:21:18Z</time>
      </trkpt>
      <trkpt lat="42.64244" lon="1.71355">
        <ele>1957.38</ele>
        <time>2019-06-08T14:21:31Z</time>
      </trkpt>
      <trkpt lat="42.64244" lon="1.71329">
        <ele>1955.46</ele>
        <time>2019-06-08T14:21:56Z</time>
      </trkpt>
      <trkpt lat="42.64236" lon="1.71323">
        <ele>1950.65</ele>
        <time>2019-06-08T14:22:08Z</time>
      </trkpt>
      <trkpt lat="42.64233" lon="1.71316">
        <ele>1946.81</ele>
        <time>2019-06-08T14:22:18Z</time>
      </trkpt>
      <trkpt lat="42.64233" lon="1.71307">
        <ele>1943.44</ele>
        <time>2019-06-08T14:22:25Z</time>
      </trkpt>
      <trkpt lat="42.64233" lon="1.71297">
        <ele>1940.08</ele>
        <time>2019-06-08T14:22:40Z</time>
      </trkpt>
      <trkpt lat="42.64231" lon="1.71285">
        <ele>1936.23</ele>
        <time>2019-06-08T14:22:53Z</time>
      </trkpt>
      <trkpt lat="42.64226" lon="1.71261">
        <ele>1929.98</ele>
        <time>2019-06-08T14:23:20Z</time>
      </trkpt>
      <trkpt lat="42.64224" lon="1.71255">
        <ele>1924.7</ele>
        <time>2019-06-08T14:23:30Z</time>
      </trkpt>
      <trkpt lat="42.64224" lon="1.71254">
        <ele>1926.14</ele>
        <time>2019-06-08T14:23:31Z</time>
      </trkpt>
      <trkpt lat="42.64218" lon="1.71237">
        <ele>1921.81</ele>
        <time>2019-06-08T14:23:54Z</time>
      </trkpt>
      <trkpt lat="42.64214" lon="1.71234">
        <ele>1922.29</ele>
        <time>2019-06-08T14:24:07Z</time>
      </trkpt>
      <trkpt lat="42.64211" lon="1.71231">
        <ele>1919.41</ele>
        <time>2019-06-08T14:24:13Z</time>
      </trkpt>
      <trkpt lat="42.64203" lon="1.71222">
        <ele>1916.53</ele>
        <time>2019-06-08T14:24:24Z</time>
      </trkpt>
      <trkpt lat="42.64191" lon="1.712">
        <ele>1913.16</ele>
        <time>2019-06-08T14:24:42Z</time>
      </trkpt>
      <trkpt lat="42.64175" lon="1.71174">
        <ele>1908.83</ele>
        <time>2019-06-08T14:25:05Z</time>
      </trkpt>
      <trkpt lat="42.64161" lon="1.71131">
        <ele>1904.99</ele>
        <time>2019-06-08T14:25:35Z</time>
      </trkpt>
      <trkpt lat="42.64143" lon="1.71071">
        <ele>1902.11</ele>
        <time>2019-06-08T14:26:19Z</time>
      </trkpt>
      <trkpt lat="42.64142" lon="1.71059">
        <ele>1901.63</ele>
        <time>2019-06-08T14:26:27Z</time>
      </trkpt>
      <trkpt lat="42.64127" lon="1.71035">
        <ele>1897.3</ele>
        <time>2019-06-08T14:26:49Z</time>
      </trkpt>
      <trkpt lat="42.64126" lon="1.71029">
        <ele>1896.82</ele>
        <time>2019-06-08T14:26:54Z</time>
      </trkpt>
      <trkpt lat="42.64113" lon="1.71004">
        <ele>1891.53</ele>
        <time>2019-06-08T14:27:13Z</time>
      </trkpt>
      <trkpt lat="42.64111" lon="1.70996">
        <ele>1891.05</ele>
        <time>2019-06-08T14:27:20Z</time>
      </trkpt>
      <trkpt lat="42.64102" lon="1.70968">
        <ele>1887.21</ele>
        <time>2019-06-08T14:27:41Z</time>
      </trkpt>
      <trkpt lat="42.64102" lon="1.70966">
        <ele>1887.21</ele>
        <time>2019-06-08T14:27:43Z</time>
      </trkpt>
      <trkpt lat="42.64098" lon="1.70958">
        <ele>1885.76</ele>
        <time>2019-06-08T14:27:51Z</time>
      </trkpt>
      <trkpt lat="42.64099" lon="1.7093">
        <ele>1881.92</ele>
        <time>2019-06-08T14:28:09Z</time>
      </trkpt>
      <trkpt lat="42.64101" lon="1.70894">
        <ele>1878.07</ele>
        <time>2019-06-08T14:28:36Z</time>
      </trkpt>
      <trkpt lat="42.64098" lon="1.70876">
        <ele>1874.23</ele>
        <time>2019-06-08T14:28:49Z</time>
      </trkpt>
      <trkpt lat="42.64087" lon="1.70848">
        <ele>1870.86</ele>
        <time>2019-06-08T14:29:16Z</time>
      </trkpt>
      <trkpt lat="42.64078" lon="1.70831">
        <ele>1869.9</ele>
        <time>2019-06-08T14:30:08Z</time>
      </trkpt>
      <trkpt lat="42.64077" lon="1.70829">
        <ele>1871.34</ele>
        <time>2019-06-08T14:31:15Z</time>
      </trkpt>
      <trkpt lat="42.64085" lon="1.70832">
        <ele>1876.63</ele>
        <time>2019-06-08T14:31:30Z</time>
      </trkpt>
      <trkpt lat="42.64085" lon="1.70832">
        <ele>1873.27</ele>
        <time>2019-06-08T14:31:31Z</time>
      </trkpt>
      <trkpt lat="42.64086" lon="1.70831">
        <ele>1867.98</ele>
        <time>2019-06-08T14:31:32Z</time>
      </trkpt>
      <trkpt lat="42.64085" lon="1.70815">
        <ele>1864.61</ele>
        <time>2019-06-08T14:31:48Z</time>
      </trkpt>
      <trkpt lat="42.6408" lon="1.7079">
        <ele>1861.25</ele>
        <time>2019-06-08T14:32:19Z</time>
      </trkpt>
      <trkpt lat="42.64079" lon="1.7079">
        <ele>1861.25</ele>
        <time>2019-06-08T14:32:20Z</time>
      </trkpt>
      <trkpt lat="42.64076" lon="1.70774">
        <ele>1855.48</ele>
        <time>2019-06-08T14:32:38Z</time>
      </trkpt>
      <trkpt lat="42.64071" lon="1.70743">
        <ele>1849.23</ele>
        <time>2019-06-08T14:33:14Z</time>
      </trkpt>
      <trkpt lat="42.64069" lon="1.70733">
        <ele>1849.71</ele>
        <time>2019-06-08T14:33:27Z</time>
      </trkpt>
      <trkpt lat="42.64073" lon="1.70727">
        <ele>1849.23</ele>
        <time>2019-06-08T14:33:36Z</time>
      </trkpt>
      <trkpt lat="42.6408" lon="1.70716">
        <ele>1845.87</ele>
        <time>2019-06-08T14:33:54Z</time>
      </trkpt>
      <trkpt lat="42.64082" lon="1.70712">
        <ele>1845.87</ele>
        <time>2019-06-08T14:34:01Z</time>
      </trkpt>
      <trkpt lat="42.64085" lon="1.70701">
        <ele>1842.02</ele>
        <time>2019-06-08T14:34:12Z</time>
      </trkpt>
      <trkpt lat="42.64092" lon="1.70666">
        <ele>1838.66</ele>
        <time>2019-06-08T14:34:45Z</time>
      </trkpt>
      <trkpt lat="42.64099" lon="1.70648">
        <ele>1835.29</ele>
        <time>2019-06-08T14:35:06Z</time>
      </trkpt>
      <trkpt lat="42.64103" lon="1.70631">
        <ele>1832.41</ele>
        <time>2019-06-08T14:35:27Z</time>
      </trkpt>
      <trkpt lat="42.6411" lon="1.70609">
        <ele>1828.08</ele>
        <time>2019-06-08T14:35:58Z</time>
      </trkpt>
      <trkpt lat="42.64113" lon="1.70601">
        <ele>1824.72</ele>
        <time>2019-06-08T14:36:10Z</time>
      </trkpt>
      <trkpt lat="42.64119" lon="1.70577">
        <ele>1818.95</ele>
        <time>2019-06-08T14:36:38Z</time>
      </trkpt>
      <trkpt lat="42.64119" lon="1.70576">
        <ele>1819.43</ele>
        <time>2019-06-08T14:36:39Z</time>
      </trkpt>
      <trkpt lat="42.64123" lon="1.70553">
        <ele>1815.11</ele>
        <time>2019-06-08T14:37:03Z</time>
      </trkpt>
      <trkpt lat="42.64124" lon="1.70551">
        <ele>1816.55</ele>
        <time>2019-06-08T14:37:06Z</time>
      </trkpt>
      <trkpt lat="42.64131" lon="1.70534">
        <ele>1812.7</ele>
        <time>2019-06-08T14:37:28Z</time>
      </trkpt>
      <trkpt lat="42.6414" lon="1.70514">
        <ele>1806.45</ele>
        <time>2019-06-08T14:37:54Z</time>
      </trkpt>
      <trkpt lat="42.64152" lon="1.70504">
        <ele>1803.09</ele>
        <time>2019-06-08T14:38:18Z</time>
      </trkpt>
      <trkpt lat="42.64165" lon="1.70485">
        <ele>1796.84</ele>
        <time>2019-06-08T14:38:44Z</time>
      </trkpt>
      <trkpt lat="42.64166" lon="1.70484">
        <ele>1797.8</ele>
        <time>2019-06-08T14:38:45Z</time>
      </trkpt>
      <trkpt lat="42.64177" lon="1.70464">
        <ele>1793.48</ele>
        <time>2019-06-08T14:39:15Z</time>
      </trkpt>
      <trkpt lat="42.64172" lon="1.70458">
        <ele>1792.03</ele>
        <time>2019-06-08T14:39:27Z</time>
      </trkpt>
      <trkpt lat="42.64174" lon="1.70447">
        <ele>1786.75</ele>
        <time>2019-06-08T14:39:56Z</time>
      </trkpt>
      <trkpt lat="42.64177" lon="1.70441">
        <ele>1782.42</ele>
        <time>2019-06-08T14:40:11Z</time>
      </trkpt>
      <trkpt lat="42.64181" lon="1.70432">
        <ele>1779.06</ele>
        <time>2019-06-08T14:40:23Z</time>
      </trkpt>
      <trkpt lat="42.64184" lon="1.70424">
        <ele>1779.06</ele>
        <time>2019-06-08T14:40:37Z</time>
      </trkpt>
      <trkpt lat="42.64183" lon="1.70423">
        <ele>1777.13</ele>
        <time>2019-06-08T14:40:39Z</time>
      </trkpt>
      <trkpt lat="42.6418" lon="1.70411">
        <ele>1773.29</ele>
        <time>2019-06-08T14:40:52Z</time>
      </trkpt>
      <trkpt lat="42.64196" lon="1.70397">
        <ele>1769.44</ele>
        <time>2019-06-08T14:41:15Z</time>
      </trkpt>
      <trkpt lat="42.64198" lon="1.70385">
        <ele>1766.08</ele>
        <time>2019-06-08T14:41:27Z</time>
      </trkpt>
      <trkpt lat="42.64199" lon="1.70384">
        <ele>1766.08</ele>
        <time>2019-06-08T14:41:28Z</time>
      </trkpt>
      <trkpt lat="42.64216" lon="1.70361">
        <ele>1760.79</ele>
        <time>2019-06-08T14:41:55Z</time>
      </trkpt>
      <trkpt lat="42.64222" lon="1.70353">
        <ele>1759.35</ele>
        <time>2019-06-08T14:42:04Z</time>
      </trkpt>
      <trkpt lat="42.64228" lon="1.70342">
        <ele>1755.99</ele>
        <time>2019-06-08T14:42:15Z</time>
      </trkpt>
      <trkpt lat="42.6425" lon="1.70326">
        <ele>1752.14</ele>
        <time>2019-06-08T14:42:40Z</time>
      </trkpt>
      <trkpt lat="42.64255" lon="1.70322">
        <ele>1751.18</ele>
        <time>2019-06-08T14:42:46Z</time>
      </trkpt>
      <trkpt lat="42.64276" lon="1.7032">
        <ele>1747.33</ele>
        <time>2019-06-08T14:43:05Z</time>
      </trkpt>
      <trkpt lat="42.64277" lon="1.7032">
        <ele>1747.33</ele>
        <time>2019-06-08T14:43:07Z</time>
      </trkpt>
      <trkpt lat="42.64296" lon="1.70316">
        <ele>1744.45</ele>
        <time>2019-06-08T14:43:31Z</time>
      </trkpt>
      <trkpt lat="42.64308" lon="1.7032">
        <ele>1744.45</ele>
        <time>2019-06-08T14:43:43Z</time>
      </trkpt>
      <trkpt lat="42.64312" lon="1.70319">
        <ele>1742.05</ele>
        <time>2019-06-08T14:43:48Z</time>
      </trkpt>
      <trkpt lat="42.64326" lon="1.70303">
        <ele>1740.6</ele>
        <time>2019-06-08T14:44:04Z</time>
      </trkpt>
      <trkpt lat="42.64342" lon="1.70291">
        <ele>1736.76</ele>
        <time>2019-06-08T14:44:21Z</time>
      </trkpt>
      <trkpt lat="42.6436" lon="1.70282">
        <ele>1730.03</ele>
        <time>2019-06-08T14:44:37Z</time>
      </trkpt>
      <trkpt lat="42.64362" lon="1.70281">
        <ele>1732.43</ele>
        <time>2019-06-08T14:44:38Z</time>
      </trkpt>
      <trkpt lat="42.64374" lon="1.70277">
        <ele>1728.11</ele>
        <time>2019-06-08T14:44:49Z</time>
      </trkpt>
      <trkpt lat="42.64401" lon="1.70276">
        <ele>1729.07</ele>
        <time>2019-06-08T14:45:14Z</time>
      </trkpt>
      <trkpt lat="42.64412" lon="1.70281">
        <ele>1727.15</ele>
        <time>2019-06-08T14:45:25Z</time>
      </trkpt>
      <trkpt lat="42.64418" lon="1.70279">
        <ele>1727.15</ele>
        <time>2019-06-08T14:45:31Z</time>
      </trkpt>
      <trkpt lat="42.64424" lon="1.70275">
        <ele>1726.18</ele>
        <time>2019-06-08T14:45:38Z</time>
      </trkpt>
      <trkpt lat="42.64468" lon="1.70264">
        <ele>1724.26</ele>
        <time>2019-06-08T14:46:18Z</time>
      </trkpt>
      <trkpt lat="42.64497" lon="1.70266">
        <ele>1722.82</ele>
        <time>2019-06-08T14:46:47Z</time>
      </trkpt>
      <trkpt lat="42.645" lon="1.70265">
        <ele>1721.38</ele>
        <time>2019-06-08T14:46:50Z</time>
      </trkpt>
      <trkpt lat="42.64531" lon="1.70266">
        <ele>1721.38</ele>
        <time>2019-06-08T14:47:27Z</time>
      </trkpt>
      <trkpt lat="42.64561" lon="1.70269">
        <ele>1722.34</ele>
        <time>2019-06-08T14:48:07Z</time>
      </trkpt>
      <trkpt lat="42.64578" lon="1.7027">
        <ele>1726.18</ele>
        <time>2019-06-08T14:48:31Z</time>
      </trkpt>
      <trkpt lat="42.64582" lon="1.70272">
        <ele>1722.34</ele>
        <time>2019-06-08T14:48:34Z</time>
      </trkpt>
      <trkpt lat="42.64596" lon="1.70274">
        <ele>1721.86</ele>
        <time>2019-06-08T14:48:46Z</time>
      </trkpt>
      <trkpt lat="42.64625" lon="1.70273">
        <ele>1722.82</ele>
        <time>2019-06-08T14:49:13Z</time>
      </trkpt>
      <trkpt lat="42.64637" lon="1.70279">
        <ele>1723.3</ele>
        <time>2019-06-08T14:49:25Z</time>
      </trkpt>
      <trkpt lat="42.64651" lon="1.70288">
        <ele>1721.86</ele>
        <time>2019-06-08T14:49:38Z</time>
      </trkpt>
      <trkpt lat="42.64673" lon="1.70292">
        <ele>1717.05</ele>
        <time>2019-06-08T14:50:04Z</time>
      </trkpt>
      <trkpt lat="42.64681" lon="1.70297">
        <ele>1715.61</ele>
        <time>2019-06-08T14:50:15Z</time>
      </trkpt>
      <trkpt lat="42.64693" lon="1.70296">
        <ele>1712.25</ele>
        <time>2019-06-08T14:50:34Z</time>
      </trkpt>
      <trkpt lat="42.64699" lon="1.70296">
        <ele>1713.21</ele>
        <time>2019-06-08T14:50:41Z</time>
      </trkpt>
      <trkpt lat="42.64705" lon="1.70295">
        <ele>1709.36</ele>
        <time>2019-06-08T14:50:47Z</time>
      </trkpt>
      <trkpt lat="42.64708" lon="1.70294">
        <ele>1707.92</ele>
        <time>2019-06-08T14:50:49Z</time>
      </trkpt>
      <trkpt lat="42.64736" lon="1.70293">
        <ele>1704.07</ele>
        <time>2019-06-08T14:51:12Z</time>
      </trkpt>
      <trkpt lat="42.64761" lon="1.70294">
        <ele>1706.48</ele>
        <time>2019-06-08T14:51:38Z</time>
      </trkpt>
      <trkpt lat="42.64767" lon="1.70297">
        <ele>1707.92</ele>
        <time>2019-06-08T14:51:43Z</time>
      </trkpt>
      <trkpt lat="42.64788" lon="1.70305">
        <ele>1701.67</ele>
        <time>2019-06-08T14:52:02Z</time>
      </trkpt>
      <trkpt lat="42.64802" lon="1.70313">
        <ele>1701.67</ele>
        <time>2019-06-08T14:52:14Z</time>
      </trkpt>
      <trkpt lat="42.64834" lon="1.70323">
        <ele>1699.75</ele>
        <time>2019-06-08T14:52:46Z</time>
      </trkpt>
      <trkpt lat="42.6486" lon="1.70331">
        <ele>1702.15</ele>
        <time>2019-06-08T14:53:10Z</time>
      </trkpt>
      <trkpt lat="42.64864" lon="1.70332">
        <ele>1704.55</ele>
        <time>2019-06-08T14:53:16Z</time>
      </trkpt>
      <trkpt lat="42.64868" lon="1.70329">
        <ele>1700.71</ele>
        <time>2019-06-08T14:53:20Z</time>
      </trkpt>
      <trkpt lat="42.64895" lon="1.70331">
        <ele>1700.71</ele>
        <time>2019-06-08T14:53:47Z</time>
      </trkpt>
      <trkpt lat="42.64914" lon="1.70334">
        <ele>1700.23</ele>
        <time>2019-06-08T14:54:05Z</time>
      </trkpt>
      <trkpt lat="42.6493" lon="1.70348">
        <ele>1702.15</ele>
        <time>2019-06-08T14:54:31Z</time>
      </trkpt>
      <trkpt lat="42.64946" lon="1.70354">
        <ele>1699.27</ele>
        <time>2019-06-08T14:55:05Z</time>
      </trkpt>
      <trkpt lat="42.64949" lon="1.70356">
        <ele>1701.19</ele>
        <time>2019-06-08T14:55:08Z</time>
      </trkpt>
      <trkpt lat="42.64985" lon="1.70354">
        <ele>1698.79</ele>
        <time>2019-06-08T14:55:56Z</time>
      </trkpt>
      <trkpt lat="42.64985" lon="1.70353">
        <ele>1699.27</ele>
        <time>2019-06-08T14:56:00Z</time>
      </trkpt>
      <trkpt lat="42.64984" lon="1.70347">
        <ele>1696.86</ele>
        <time>2019-06-08T14:58:16Z</time>
      </trkpt>
      <trkpt lat="42.64982" lon="1.70353">
        <ele>1696.86</ele>
        <time>2019-06-08T15:00:50Z</time>
      </trkpt>
      <trkpt lat="42.64983" lon="1.70355">
        <ele>1696.86</ele>
        <time>2019-06-08T15:01:06Z</time>
      </trkpt>
      <trkpt lat="42.64991" lon="1.70352">
        <ele>1696.38</ele>
        <time>2019-06-08T15:01:58Z</time>
      </trkpt>
      <trkpt lat="42.65037" lon="1.70355">
        <ele>1697.83</ele>
        <time>2019-06-08T15:03:08Z</time>
      </trkpt>
      <trkpt lat="42.65046" lon="1.70354">
        <ele>1696.86</ele>
        <time>2019-06-08T15:03:10Z</time>
      </trkpt>
      <trkpt lat="42.65067" lon="1.7035">
        <ele>1698.79</ele>
        <time>2019-06-08T15:03:15Z</time>
      </trkpt>
      <trkpt lat="42.65088" lon="1.70353">
        <ele>1697.34</ele>
        <time>2019-06-08T15:03:19Z</time>
      </trkpt>
      <trkpt lat="42.65094" lon="1.70353">
        <ele>1697.83</ele>
        <time>2019-06-08T15:03:20Z</time>
      </trkpt>
      <trkpt lat="42.65142" lon="1.70354">
        <ele>1695.9</ele>
        <time>2019-06-08T15:03:32Z</time>
      </trkpt>
      <trkpt lat="42.65186" lon="1.70385">
        <ele>1693.02</ele>
        <time>2019-06-08T15:03:44Z</time>
      </trkpt>
      <trkpt lat="42.65191" lon="1.70388">
        <ele>1692.54</ele>
        <time>2019-06-08T15:03:45Z</time>
      </trkpt>
      <trkpt lat="42.65229" lon="1.70407">
        <ele>1689.17</ele>
        <time>2019-06-08T15:03:51Z</time>
      </trkpt>
      <trkpt lat="42.65235" lon="1.70412">
        <ele>1689.65</ele>
        <time>2019-06-08T15:03:52Z</time>
      </trkpt>
      <trkpt lat="42.65247" lon="1.70427">
        <ele>1688.21</ele>
        <time>2019-06-08T15:03:54Z</time>
      </trkpt>
      <trkpt lat="42.65263" lon="1.70451">
        <ele>1683.89</ele>
        <time>2019-06-08T15:03:57Z</time>
      </trkpt>
      <trkpt lat="42.6528" lon="1.70473">
        <ele>1680.04</ele>
        <time>2019-06-08T15:04:00Z</time>
      </trkpt>
      <trkpt lat="42.65323" lon="1.70516">
        <ele>1672.35</ele>
        <time>2019-06-08T15:04:07Z</time>
      </trkpt>
      <trkpt lat="42.65329" lon="1.70522">
        <ele>1672.35</ele>
        <time>2019-06-08T15:04:08Z</time>
      </trkpt>
      <trkpt lat="42.65362" lon="1.70537">
        <ele>1665.62</ele>
        <time>2019-06-08T15:04:13Z</time>
      </trkpt>
      <trkpt lat="42.65375" lon="1.70541">
        <ele>1665.62</ele>
        <time>2019-06-08T15:04:15Z</time>
      </trkpt>
      <trkpt lat="42.65386" lon="1.70549">
        <ele>1662.26</ele>
        <time>2019-06-08T15:04:17Z</time>
      </trkpt>
      <trkpt lat="42.65404" lon="1.70568">
        <ele>1660.33</ele>
        <time>2019-06-08T15:04:21Z</time>
      </trkpt>
      <trkpt lat="42.65426" lon="1.70595">
        <ele>1656.97</ele>
        <time>2019-06-08T15:04:25Z</time>
      </trkpt>
      <trkpt lat="42.65448" lon="1.7062">
        <ele>1651.68</ele>
        <time>2019-06-08T15:04:29Z</time>
      </trkpt>
      <trkpt lat="42.65462" lon="1.70635">
        <ele>1651.2</ele>
        <time>2019-06-08T15:04:33Z</time>
      </trkpt>
      <trkpt lat="42.65513" lon="1.70634">
        <ele>1653.6</ele>
        <time>2019-06-08T15:04:42Z</time>
      </trkpt>
      <trkpt lat="42.65517" lon="1.70634">
        <ele>1651.68</ele>
        <time>2019-06-08T15:04:43Z</time>
      </trkpt>
      <trkpt lat="42.65523" lon="1.70634">
        <ele>1650.24</ele>
        <time>2019-06-08T15:04:45Z</time>
      </trkpt>
      <trkpt lat="42.65575" lon="1.70643">
        <ele>1644.95</ele>
        <time>2019-06-08T15:04:53Z</time>
      </trkpt>
      <trkpt lat="42.65589" lon="1.70646">
        <ele>1643.03</ele>
        <time>2019-06-08T15:04:56Z</time>
      </trkpt>
      <trkpt lat="42.65601" lon="1.70652">
        <ele>1642.07</ele>
        <time>2019-06-08T15:04:58Z</time>
      </trkpt>
      <trkpt lat="42.65621" lon="1.70663">
        <ele>1638.22</ele>
        <time>2019-06-08T15:05:01Z</time>
      </trkpt>
      <trkpt lat="42.65656" lon="1.70659">
        <ele>1634.86</ele>
        <time>2019-06-08T15:05:06Z</time>
      </trkpt>
      <trkpt lat="42.65663" lon="1.70658">
        <ele>1635.34</ele>
        <time>2019-06-08T15:05:07Z</time>
      </trkpt>
      <trkpt lat="42.6567" lon="1.7066">
        <ele>1633.9</ele>
        <time>2019-06-08T15:05:08Z</time>
      </trkpt>
      <trkpt lat="42.65725" lon="1.70677">
        <ele>1628.61</ele>
        <time>2019-06-08T15:05:16Z</time>
      </trkpt>
      <trkpt lat="42.65735" lon="1.70677">
        <ele>1626.21</ele>
        <time>2019-06-08T15:05:18Z</time>
      </trkpt>
      <trkpt lat="42.6575" lon="1.70675">
        <ele>1625.25</ele>
        <time>2019-06-08T15:05:22Z</time>
      </trkpt>
      <trkpt lat="42.65762" lon="1.70677">
        <ele>1624.28</ele>
        <time>2019-06-08T15:05:24Z</time>
      </trkpt>
      <trkpt lat="42.65769" lon="1.70678">
        <ele>1623.8</ele>
        <time>2019-06-08T15:05:25Z</time>
      </trkpt>
      <trkpt lat="42.65844" lon="1.70679">
        <ele>1618.04</ele>
        <time>2019-06-08T15:05:35Z</time>
      </trkpt>
      <trkpt lat="42.65907" lon="1.70684">
        <ele>1613.23</ele>
        <time>2019-06-08T15:05:43Z</time>
      </trkpt>
      <trkpt lat="42.65921" lon="1.70685">
        <ele>1611.31</ele>
        <time>2019-06-08T15:05:45Z</time>
      </trkpt>
      <trkpt lat="42.6596" lon="1.70686">
        <ele>1607.46</ele>
        <time>2019-06-08T15:05:50Z</time>
      </trkpt>
      <trkpt lat="42.65984" lon="1.70688">
        <ele>1604.58</ele>
        <time>2019-06-08T15:05:53Z</time>
      </trkpt>
      <trkpt lat="42.65996" lon="1.70688">
        <ele>1601.21</ele>
        <time>2019-06-08T15:05:55Z</time>
      </trkpt>
      <trkpt lat="42.66002" lon="1.70686">
        <ele>1602.66</ele>
        <time>2019-06-08T15:05:56Z</time>
      </trkpt>
      <trkpt lat="42.66023" lon="1.70683">
        <ele>1599.77</ele>
        <time>2019-06-08T15:05:59Z</time>
      </trkpt>
      <trkpt lat="42.66075" lon="1.70689">
        <ele>1597.37</ele>
        <time>2019-06-08T15:06:06Z</time>
      </trkpt>
      <trkpt lat="42.66082" lon="1.70691">
        <ele>1597.37</ele>
        <time>2019-06-08T15:06:07Z</time>
      </trkpt>
      <trkpt lat="42.66097" lon="1.70693">
        <ele>1596.41</ele>
        <time>2019-06-08T15:06:09Z</time>
      </trkpt>
      <trkpt lat="42.66104" lon="1.70695">
        <ele>1595.45</ele>
        <time>2019-06-08T15:06:10Z</time>
      </trkpt>
      <trkpt lat="42.66137" lon="1.70707">
        <ele>1590.64</ele>
        <time>2019-06-08T15:06:15Z</time>
      </trkpt>
      <trkpt lat="42.66142" lon="1.7071">
        <ele>1590.64</ele>
        <time>2019-06-08T15:06:16Z</time>
      </trkpt>
      <trkpt lat="42.66162" lon="1.70723">
        <ele>1588.72</ele>
        <time>2019-06-08T15:06:21Z</time>
      </trkpt>
      <trkpt lat="42.66213" lon="1.70754">
        <ele>1592.08</ele>
        <time>2019-06-08T15:06:33Z</time>
      </trkpt>
      <trkpt lat="42.66261" lon="1.70784">
        <ele>1595.93</ele>
        <time>2019-06-08T15:06:40Z</time>
      </trkpt>
      <trkpt lat="42.6635" lon="1.70801">
        <ele>1596.89</ele>
        <time>2019-06-08T15:06:52Z</time>
      </trkpt>
      <trkpt lat="42.66356" lon="1.70805">
        <ele>1595.45</ele>
        <time>2019-06-08T15:06:53Z</time>
      </trkpt>
      <trkpt lat="42.66376" lon="1.70818">
        <ele>1594</ele>
        <time>2019-06-08T15:06:56Z</time>
      </trkpt>
      <trkpt lat="42.66436" lon="1.70814">
        <ele>1595.93</ele>
        <time>2019-06-08T15:07:04Z</time>
      </trkpt>
      <trkpt lat="42.66456" lon="1.70805">
        <ele>1596.89</ele>
        <time>2019-06-08T15:07:07Z</time>
      </trkpt>
      <trkpt lat="42.66499" lon="1.70806">
        <ele>1593.04</ele>
        <time>2019-06-08T15:07:17Z</time>
      </trkpt>
      <trkpt lat="42.66527" lon="1.70822">
        <ele>1587.75</ele>
        <time>2019-06-08T15:07:21Z</time>
      </trkpt>
      <trkpt lat="42.66535" lon="1.70825">
        <ele>1586.79</ele>
        <time>2019-06-08T15:07:22Z</time>
      </trkpt>
      <trkpt lat="42.6655" lon="1.7083">
        <ele>1582.47</ele>
        <time>2019-06-08T15:07:24Z</time>
      </trkpt>
      <trkpt lat="42.66604" lon="1.70872">
        <ele>1576.7</ele>
        <time>2019-06-08T15:07:32Z</time>
      </trkpt>
      <trkpt lat="42.66611" lon="1.70879">
        <ele>1572.85</ele>
        <time>2019-06-08T15:07:33Z</time>
      </trkpt>
      <trkpt lat="42.66618" lon="1.70884">
        <ele>1572.85</ele>
        <time>2019-06-08T15:07:34Z</time>
      </trkpt>
      <trkpt lat="42.6664" lon="1.70897">
        <ele>1570.45</ele>
        <time>2019-06-08T15:07:37Z</time>
      </trkpt>
      <trkpt lat="42.66688" lon="1.7092">
        <ele>1564.2</ele>
        <time>2019-06-08T15:07:43Z</time>
      </trkpt>
      <trkpt lat="42.66711" lon="1.70929">
        <ele>1561.8</ele>
        <time>2019-06-08T15:07:46Z</time>
      </trkpt>
      <trkpt lat="42.66733" lon="1.70924">
        <ele>1558.43</ele>
        <time>2019-06-08T15:07:49Z</time>
      </trkpt>
      <trkpt lat="42.66739" lon="1.70919">
        <ele>1558.92</ele>
        <time>2019-06-08T15:07:50Z</time>
      </trkpt>
      <trkpt lat="42.66751" lon="1.70909">
        <ele>1557.95</ele>
        <time>2019-06-08T15:07:52Z</time>
      </trkpt>
      <trkpt lat="42.66784" lon="1.70908">
        <ele>1554.59</ele>
        <time>2019-06-08T15:07:57Z</time>
      </trkpt>
      <trkpt lat="42.66798" lon="1.70912">
        <ele>1551.22</ele>
        <time>2019-06-08T15:07:59Z</time>
      </trkpt>
      <trkpt lat="42.66804" lon="1.70914">
        <ele>1551.22</ele>
        <time>2019-06-08T15:08:00Z</time>
      </trkpt>
      <trkpt lat="42.66889" lon="1.70926">
        <ele>1550.74</ele>
        <time>2019-06-08T15:08:12Z</time>
      </trkpt>
      <trkpt lat="42.66938" lon="1.70924">
        <ele>1552.19</ele>
        <time>2019-06-08T15:08:18Z</time>
      </trkpt>
      <trkpt lat="42.67019" lon="1.70926">
        <ele>1550.74</ele>
        <time>2019-06-08T15:08:29Z</time>
      </trkpt>
      <trkpt lat="42.6712" lon="1.70892">
        <ele>1551.22</ele>
        <time>2019-06-08T15:08:40Z</time>
      </trkpt>
      <trkpt lat="42.67225" lon="1.7085">
        <ele>1548.82</ele>
        <time>2019-06-08T15:08:54Z</time>
      </trkpt>
      <trkpt lat="42.67297" lon="1.70865">
        <ele>1547.38</ele>
        <time>2019-06-08T15:09:09Z</time>
      </trkpt>
      <trkpt lat="42.67296" lon="1.70864">
        <ele>1547.86</ele>
        <time>2019-06-08T15:09:27Z</time>
      </trkpt>
      <trkpt lat="42.67294" lon="1.70864">
        <ele>1541.13</ele>
        <time>2019-06-08T15:09:49Z</time>
      </trkpt>
      <trkpt lat="42.67294" lon="1.70863">
        <ele>1546.9</ele>
        <time>2019-06-08T15:09:50Z</time>
      </trkpt>
      <trkpt lat="42.67294" lon="1.70863">
        <ele>1542.09</ele>
        <time>2019-06-08T15:09:52Z</time>
      </trkpt>
    </trkseg>
  </trk>
</gpx>